<?xml version="1.0" encoding="UTF-8" standalone="no" ?>
<gpx xmlns="http://www.topografix.com/GPX/1/1" xmlns:xsi="http://www.w3.org/2001/XMLSchema-instance" xsi:schemaLocation="http://www.topografix.com/GPX/1/1 http://www.topografix.com/GPX/1/1/gpx.xsd" version="1.1" creator="VisuGPX - https://www.visugpx.com">
  <metadata>
    <name>MILLAU J1 et 2</name>
  </metadata>
  <trk>
    <name><![CDATA[MILLAU J2 - Chemin des ânes Run 2]]></name>
    <trkseg>
      <trkpt lat="44.12294" lon="3.12487">
        <ele>830.20001220703</ele>
        <time>2020-10-03T10:25:27.000Z</time>
      </trkpt>
      <trkpt lat="44.12288" lon="3.12501">
        <ele>828.59997558594</ele>
        <time>2020-10-03T10:25:28.000Z</time>
      </trkpt>
      <trkpt lat="44.12289" lon="3.12501">
        <ele>827.59997558594</ele>
        <time>2020-10-03T10:25:30.000Z</time>
      </trkpt>
      <trkpt lat="44.1229" lon="3.125">
        <ele>827.20001220703</ele>
        <time>2020-10-03T10:25:40.000Z</time>
      </trkpt>
      <trkpt lat="44.1229" lon="3.125">
        <ele>827.40002441406</ele>
        <time>2020-10-03T10:25:53.000Z</time>
      </trkpt>
      <trkpt lat="44.1229" lon="3.12499">
        <ele>827.20001220703</ele>
        <time>2020-10-03T10:25:56.000Z</time>
      </trkpt>
      <trkpt lat="44.12292" lon="3.12494">
        <ele>827.40002441406</ele>
        <time>2020-10-03T10:26:12.000Z</time>
      </trkpt>
      <trkpt lat="44.12292" lon="3.12492">
        <ele>827.79998779297</ele>
        <time>2020-10-03T10:26:17.000Z</time>
      </trkpt>
      <trkpt lat="44.12292" lon="3.12492">
        <ele>827.79998779297</ele>
        <time>2020-10-03T10:26:19.000Z</time>
      </trkpt>
      <trkpt lat="44.12292" lon="3.12492">
        <ele>827.79998779297</ele>
        <time>2020-10-03T10:26:21.000Z</time>
      </trkpt>
      <trkpt lat="44.12291" lon="3.12491">
        <ele>828</ele>
        <time>2020-10-03T10:26:23.000Z</time>
      </trkpt>
      <trkpt lat="44.12291" lon="3.12491">
        <ele>828</ele>
        <time>2020-10-03T10:26:25.000Z</time>
      </trkpt>
      <trkpt lat="44.12291" lon="3.12491">
        <ele>828</ele>
        <time>2020-10-03T10:26:27.000Z</time>
      </trkpt>
      <trkpt lat="44.12291" lon="3.12491">
        <ele>828</ele>
        <time>2020-10-03T10:26:29.000Z</time>
      </trkpt>
      <trkpt lat="44.12291" lon="3.12491">
        <ele>828</ele>
        <time>2020-10-03T10:26:31.000Z</time>
      </trkpt>
      <trkpt lat="44.12291" lon="3.12491">
        <ele>828</ele>
        <time>2020-10-03T10:26:33.000Z</time>
      </trkpt>
      <trkpt lat="44.12291" lon="3.1249">
        <ele>828</ele>
        <time>2020-10-03T10:26:35.000Z</time>
      </trkpt>
      <trkpt lat="44.12291" lon="3.1249">
        <ele>828</ele>
        <time>2020-10-03T10:26:37.000Z</time>
      </trkpt>
      <trkpt lat="44.12291" lon="3.12489">
        <ele>828</ele>
        <time>2020-10-03T10:26:39.000Z</time>
      </trkpt>
      <trkpt lat="44.1229" lon="3.1249">
        <ele>827.79998779297</ele>
        <time>2020-10-03T10:26:41.000Z</time>
      </trkpt>
      <trkpt lat="44.1229" lon="3.1249">
        <ele>827.59997558594</ele>
        <time>2020-10-03T10:26:43.000Z</time>
      </trkpt>
      <trkpt lat="44.1229" lon="3.12491">
        <ele>827.59997558594</ele>
        <time>2020-10-03T10:26:45.000Z</time>
      </trkpt>
      <trkpt lat="44.1229" lon="3.12491">
        <ele>827.59997558594</ele>
        <time>2020-10-03T10:26:47.000Z</time>
      </trkpt>
      <trkpt lat="44.12289" lon="3.12492">
        <ele>827.59997558594</ele>
        <time>2020-10-03T10:26:49.000Z</time>
      </trkpt>
      <trkpt lat="44.12289" lon="3.12492">
        <ele>827.59997558594</ele>
        <time>2020-10-03T10:26:51.000Z</time>
      </trkpt>
      <trkpt lat="44.12289" lon="3.12492">
        <ele>827.59997558594</ele>
        <time>2020-10-03T10:26:52.000Z</time>
      </trkpt>
      <trkpt lat="44.12289" lon="3.12493">
        <ele>827.59997558594</ele>
        <time>2020-10-03T10:26:53.000Z</time>
      </trkpt>
      <trkpt lat="44.12289" lon="3.12493">
        <ele>827.59997558594</ele>
        <time>2020-10-03T10:26:55.000Z</time>
      </trkpt>
      <trkpt lat="44.12289" lon="3.12493">
        <ele>827.59997558594</ele>
        <time>2020-10-03T10:26:57.000Z</time>
      </trkpt>
      <trkpt lat="44.12289" lon="3.12493">
        <ele>827.59997558594</ele>
        <time>2020-10-03T10:26:59.000Z</time>
      </trkpt>
      <trkpt lat="44.12289" lon="3.12493">
        <ele>827.79998779297</ele>
        <time>2020-10-03T10:27:01.000Z</time>
      </trkpt>
      <trkpt lat="44.12289" lon="3.12493">
        <ele>827.59997558594</ele>
        <time>2020-10-03T10:27:03.000Z</time>
      </trkpt>
      <trkpt lat="44.12289" lon="3.12493">
        <ele>827.59997558594</ele>
        <time>2020-10-03T10:27:05.000Z</time>
      </trkpt>
      <trkpt lat="44.12289" lon="3.12493">
        <ele>827.59997558594</ele>
        <time>2020-10-03T10:27:06.000Z</time>
      </trkpt>
      <trkpt lat="44.12289" lon="3.12493">
        <ele>827.59997558594</ele>
        <time>2020-10-03T10:27:07.000Z</time>
      </trkpt>
      <trkpt lat="44.12289" lon="3.12493">
        <ele>827.59997558594</ele>
        <time>2020-10-03T10:27:09.000Z</time>
      </trkpt>
      <trkpt lat="44.12289" lon="3.12493">
        <ele>827.59997558594</ele>
        <time>2020-10-03T10:27:10.000Z</time>
      </trkpt>
      <trkpt lat="44.12289" lon="3.12493">
        <ele>827.59997558594</ele>
        <time>2020-10-03T10:27:11.000Z</time>
      </trkpt>
      <trkpt lat="44.12289" lon="3.12493">
        <ele>827.59997558594</ele>
        <time>2020-10-03T10:27:13.000Z</time>
      </trkpt>
      <trkpt lat="44.12289" lon="3.12493">
        <ele>827.59997558594</ele>
        <time>2020-10-03T10:27:15.000Z</time>
      </trkpt>
      <trkpt lat="44.12289" lon="3.12492">
        <ele>827.59997558594</ele>
        <time>2020-10-03T10:27:17.000Z</time>
      </trkpt>
      <trkpt lat="44.12289" lon="3.12492">
        <ele>827.40002441406</ele>
        <time>2020-10-03T10:27:19.000Z</time>
      </trkpt>
      <trkpt lat="44.12289" lon="3.12492">
        <ele>827.20001220703</ele>
        <time>2020-10-03T10:27:21.000Z</time>
      </trkpt>
      <trkpt lat="44.12289" lon="3.12493">
        <ele>827.20001220703</ele>
        <time>2020-10-03T10:27:23.000Z</time>
      </trkpt>
      <trkpt lat="44.12289" lon="3.12493">
        <ele>827.20001220703</ele>
        <time>2020-10-03T10:27:25.000Z</time>
      </trkpt>
      <trkpt lat="44.12288" lon="3.12493">
        <ele>827.20001220703</ele>
        <time>2020-10-03T10:27:27.000Z</time>
      </trkpt>
      <trkpt lat="44.12288" lon="3.12492">
        <ele>827.20001220703</ele>
        <time>2020-10-03T10:27:29.000Z</time>
      </trkpt>
      <trkpt lat="44.12288" lon="3.12492">
        <ele>827.20001220703</ele>
        <time>2020-10-03T10:27:31.000Z</time>
      </trkpt>
      <trkpt lat="44.12288" lon="3.12491">
        <ele>827.20001220703</ele>
        <time>2020-10-03T10:27:33.000Z</time>
      </trkpt>
      <trkpt lat="44.12289" lon="3.12491">
        <ele>827.20001220703</ele>
        <time>2020-10-03T10:27:35.000Z</time>
      </trkpt>
      <trkpt lat="44.12289" lon="3.12491">
        <ele>827.20001220703</ele>
        <time>2020-10-03T10:27:37.000Z</time>
      </trkpt>
      <trkpt lat="44.12288" lon="3.12491">
        <ele>827.40002441406</ele>
        <time>2020-10-03T10:27:39.000Z</time>
      </trkpt>
      <trkpt lat="44.12288" lon="3.12491">
        <ele>827.40002441406</ele>
        <time>2020-10-03T10:27:41.000Z</time>
      </trkpt>
      <trkpt lat="44.12289" lon="3.12492">
        <ele>827.79998779297</ele>
        <time>2020-10-03T10:27:43.000Z</time>
      </trkpt>
      <trkpt lat="44.12289" lon="3.12494">
        <ele>828</ele>
        <time>2020-10-03T10:27:45.000Z</time>
      </trkpt>
      <trkpt lat="44.12291" lon="3.12497">
        <ele>828.20001220703</ele>
        <time>2020-10-03T10:27:47.000Z</time>
      </trkpt>
      <trkpt lat="44.12291" lon="3.125">
        <ele>828.20001220703</ele>
        <time>2020-10-03T10:27:49.000Z</time>
      </trkpt>
      <trkpt lat="44.12291" lon="3.12501">
        <ele>828.20001220703</ele>
        <time>2020-10-03T10:27:50.000Z</time>
      </trkpt>
      <trkpt lat="44.12291" lon="3.12502">
        <ele>828.40002441406</ele>
        <time>2020-10-03T10:27:51.000Z</time>
      </trkpt>
      <trkpt lat="44.12291" lon="3.12506">
        <ele>828.40002441406</ele>
        <time>2020-10-03T10:27:53.000Z</time>
      </trkpt>
      <trkpt lat="44.12292" lon="3.12508">
        <ele>828.59997558594</ele>
        <time>2020-10-03T10:27:54.000Z</time>
      </trkpt>
      <trkpt lat="44.12292" lon="3.1251">
        <ele>828.79998779297</ele>
        <time>2020-10-03T10:27:55.000Z</time>
      </trkpt>
      <trkpt lat="44.12292" lon="3.12514">
        <ele>829</ele>
        <time>2020-10-03T10:27:57.000Z</time>
      </trkpt>
      <trkpt lat="44.12292" lon="3.12518">
        <ele>829</ele>
        <time>2020-10-03T10:27:59.000Z</time>
      </trkpt>
      <trkpt lat="44.12292" lon="3.12524">
        <ele>829</ele>
        <time>2020-10-03T10:28:01.000Z</time>
      </trkpt>
      <trkpt lat="44.12292" lon="3.12529">
        <ele>829.20001220703</ele>
        <time>2020-10-03T10:28:03.000Z</time>
      </trkpt>
      <trkpt lat="44.12293" lon="3.12536">
        <ele>829.20001220703</ele>
        <time>2020-10-03T10:28:05.000Z</time>
      </trkpt>
      <trkpt lat="44.12294" lon="3.12543">
        <ele>829.40002441406</ele>
        <time>2020-10-03T10:28:07.000Z</time>
      </trkpt>
      <trkpt lat="44.12294" lon="3.1255">
        <ele>829.79998779297</ele>
        <time>2020-10-03T10:28:09.000Z</time>
      </trkpt>
      <trkpt lat="44.12293" lon="3.12556">
        <ele>830.20001220703</ele>
        <time>2020-10-03T10:28:11.000Z</time>
      </trkpt>
      <trkpt lat="44.12294" lon="3.12563">
        <ele>830.59997558594</ele>
        <time>2020-10-03T10:28:13.000Z</time>
      </trkpt>
      <trkpt lat="44.12295" lon="3.1257">
        <ele>830.59997558594</ele>
        <time>2020-10-03T10:28:15.000Z</time>
      </trkpt>
      <trkpt lat="44.12295" lon="3.12574">
        <ele>830.59997558594</ele>
        <time>2020-10-03T10:28:16.000Z</time>
      </trkpt>
      <trkpt lat="44.12294" lon="3.12578">
        <ele>830.79998779297</ele>
        <time>2020-10-03T10:28:17.000Z</time>
      </trkpt>
      <trkpt lat="44.12294" lon="3.12586">
        <ele>831</ele>
        <time>2020-10-03T10:28:19.000Z</time>
      </trkpt>
      <trkpt lat="44.12294" lon="3.1259">
        <ele>831</ele>
        <time>2020-10-03T10:28:20.000Z</time>
      </trkpt>
      <trkpt lat="44.12293" lon="3.12594">
        <ele>831.40002441406</ele>
        <time>2020-10-03T10:28:21.000Z</time>
      </trkpt>
      <trkpt lat="44.12292" lon="3.12601">
        <ele>831.79998779297</ele>
        <time>2020-10-03T10:28:23.000Z</time>
      </trkpt>
      <trkpt lat="44.1229" lon="3.12607">
        <ele>832</ele>
        <time>2020-10-03T10:28:25.000Z</time>
      </trkpt>
      <trkpt lat="44.12288" lon="3.12614">
        <ele>832.59997558594</ele>
        <time>2020-10-03T10:28:27.000Z</time>
      </trkpt>
      <trkpt lat="44.12286" lon="3.12622">
        <ele>833</ele>
        <time>2020-10-03T10:28:29.000Z</time>
      </trkpt>
      <trkpt lat="44.12285" lon="3.12627">
        <ele>833.20001220703</ele>
        <time>2020-10-03T10:28:30.000Z</time>
      </trkpt>
      <trkpt lat="44.12285" lon="3.12631">
        <ele>833.40002441406</ele>
        <time>2020-10-03T10:28:31.000Z</time>
      </trkpt>
      <trkpt lat="44.12283" lon="3.1264">
        <ele>833.59997558594</ele>
        <time>2020-10-03T10:28:33.000Z</time>
      </trkpt>
      <trkpt lat="44.12281" lon="3.12647">
        <ele>834.20001220703</ele>
        <time>2020-10-03T10:28:35.000Z</time>
      </trkpt>
      <trkpt lat="44.1228" lon="3.12651">
        <ele>834.20001220703</ele>
        <time>2020-10-03T10:28:36.000Z</time>
      </trkpt>
      <trkpt lat="44.1228" lon="3.12655">
        <ele>834.40002441406</ele>
        <time>2020-10-03T10:28:37.000Z</time>
      </trkpt>
      <trkpt lat="44.12279" lon="3.12662">
        <ele>834.59997558594</ele>
        <time>2020-10-03T10:28:39.000Z</time>
      </trkpt>
      <trkpt lat="44.12277" lon="3.12669">
        <ele>835</ele>
        <time>2020-10-03T10:28:41.000Z</time>
      </trkpt>
      <trkpt lat="44.12277" lon="3.12676">
        <ele>835.20001220703</ele>
        <time>2020-10-03T10:28:43.000Z</time>
      </trkpt>
      <trkpt lat="44.12276" lon="3.12679">
        <ele>835.20001220703</ele>
        <time>2020-10-03T10:28:44.000Z</time>
      </trkpt>
      <trkpt lat="44.12275" lon="3.12682">
        <ele>835.59997558594</ele>
        <time>2020-10-03T10:28:45.000Z</time>
      </trkpt>
      <trkpt lat="44.12273" lon="3.12686">
        <ele>835.40002441406</ele>
        <time>2020-10-03T10:28:47.000Z</time>
      </trkpt>
      <trkpt lat="44.12272" lon="3.12692">
        <ele>835.59997558594</ele>
        <time>2020-10-03T10:28:49.000Z</time>
      </trkpt>
      <trkpt lat="44.1227" lon="3.12695">
        <ele>835.59997558594</ele>
        <time>2020-10-03T10:28:50.000Z</time>
      </trkpt>
      <trkpt lat="44.12269" lon="3.12698">
        <ele>835.79998779297</ele>
        <time>2020-10-03T10:28:51.000Z</time>
      </trkpt>
      <trkpt lat="44.12263" lon="3.12701">
        <ele>835.59997558594</ele>
        <time>2020-10-03T10:28:53.000Z</time>
      </trkpt>
      <trkpt lat="44.12259" lon="3.12704">
        <ele>835.79998779297</ele>
        <time>2020-10-03T10:28:55.000Z</time>
      </trkpt>
      <trkpt lat="44.12257" lon="3.12705">
        <ele>836</ele>
        <time>2020-10-03T10:28:56.000Z</time>
      </trkpt>
      <trkpt lat="44.12255" lon="3.12707">
        <ele>836.20001220703</ele>
        <time>2020-10-03T10:28:57.000Z</time>
      </trkpt>
      <trkpt lat="44.12254" lon="3.12708">
        <ele>836.40002441406</ele>
        <time>2020-10-03T10:28:58.000Z</time>
      </trkpt>
      <trkpt lat="44.12252" lon="3.12709">
        <ele>836.59997558594</ele>
        <time>2020-10-03T10:28:59.000Z</time>
      </trkpt>
      <trkpt lat="44.12249" lon="3.12712">
        <ele>837.20001220703</ele>
        <time>2020-10-03T10:29:01.000Z</time>
      </trkpt>
      <trkpt lat="44.12249" lon="3.12714">
        <ele>837.40002441406</ele>
        <time>2020-10-03T10:29:02.000Z</time>
      </trkpt>
      <trkpt lat="44.12248" lon="3.12715">
        <ele>837.40002441406</ele>
        <time>2020-10-03T10:29:03.000Z</time>
      </trkpt>
      <trkpt lat="44.12247" lon="3.12716">
        <ele>838</ele>
        <time>2020-10-03T10:29:04.000Z</time>
      </trkpt>
      <trkpt lat="44.12246" lon="3.12716">
        <ele>838.20001220703</ele>
        <time>2020-10-03T10:29:05.000Z</time>
      </trkpt>
      <trkpt lat="44.12246" lon="3.12717">
        <ele>838.40002441406</ele>
        <time>2020-10-03T10:29:06.000Z</time>
      </trkpt>
      <trkpt lat="44.12245" lon="3.12717">
        <ele>838.59997558594</ele>
        <time>2020-10-03T10:29:07.000Z</time>
      </trkpt>
      <trkpt lat="44.12244" lon="3.1272">
        <ele>838.79998779297</ele>
        <time>2020-10-03T10:29:09.000Z</time>
      </trkpt>
      <trkpt lat="44.12243" lon="3.12722">
        <ele>839</ele>
        <time>2020-10-03T10:29:10.000Z</time>
      </trkpt>
      <trkpt lat="44.12242" lon="3.12724">
        <ele>839.40002441406</ele>
        <time>2020-10-03T10:29:11.000Z</time>
      </trkpt>
      <trkpt lat="44.12239" lon="3.12726">
        <ele>839.79998779297</ele>
        <time>2020-10-03T10:29:13.000Z</time>
      </trkpt>
      <trkpt lat="44.12237" lon="3.1273">
        <ele>840.20001220703</ele>
        <time>2020-10-03T10:29:15.000Z</time>
      </trkpt>
      <trkpt lat="44.12237" lon="3.12732">
        <ele>840.40002441406</ele>
        <time>2020-10-03T10:29:16.000Z</time>
      </trkpt>
      <trkpt lat="44.12236" lon="3.12735">
        <ele>840.59997558594</ele>
        <time>2020-10-03T10:29:17.000Z</time>
      </trkpt>
      <trkpt lat="44.12233" lon="3.12739">
        <ele>840.79998779297</ele>
        <time>2020-10-03T10:29:19.000Z</time>
      </trkpt>
      <trkpt lat="44.1223" lon="3.12743">
        <ele>841</ele>
        <time>2020-10-03T10:29:21.000Z</time>
      </trkpt>
      <trkpt lat="44.12227" lon="3.12748">
        <ele>841.40002441406</ele>
        <time>2020-10-03T10:29:23.000Z</time>
      </trkpt>
      <trkpt lat="44.12224" lon="3.12753">
        <ele>841.59997558594</ele>
        <time>2020-10-03T10:29:25.000Z</time>
      </trkpt>
      <trkpt lat="44.12221" lon="3.12758">
        <ele>842.20001220703</ele>
        <time>2020-10-03T10:29:27.000Z</time>
      </trkpt>
      <trkpt lat="44.12217" lon="3.12762">
        <ele>842.40002441406</ele>
        <time>2020-10-03T10:29:29.000Z</time>
      </trkpt>
      <trkpt lat="44.12213" lon="3.12766">
        <ele>842.79998779297</ele>
        <time>2020-10-03T10:29:31.000Z</time>
      </trkpt>
      <trkpt lat="44.12209" lon="3.12768">
        <ele>843.20001220703</ele>
        <time>2020-10-03T10:29:33.000Z</time>
      </trkpt>
      <trkpt lat="44.12205" lon="3.1277">
        <ele>843.40002441406</ele>
        <time>2020-10-03T10:29:35.000Z</time>
      </trkpt>
      <trkpt lat="44.12203" lon="3.12771">
        <ele>843.59997558594</ele>
        <time>2020-10-03T10:29:36.000Z</time>
      </trkpt>
      <trkpt lat="44.12201" lon="3.12772">
        <ele>843.79998779297</ele>
        <time>2020-10-03T10:29:37.000Z</time>
      </trkpt>
      <trkpt lat="44.12196" lon="3.12773">
        <ele>844.20001220703</ele>
        <time>2020-10-03T10:29:39.000Z</time>
      </trkpt>
      <trkpt lat="44.12193" lon="3.12776">
        <ele>844.40002441406</ele>
        <time>2020-10-03T10:29:41.000Z</time>
      </trkpt>
      <trkpt lat="44.12189" lon="3.12778">
        <ele>844.79998779297</ele>
        <time>2020-10-03T10:29:43.000Z</time>
      </trkpt>
      <trkpt lat="44.12186" lon="3.12782">
        <ele>845</ele>
        <time>2020-10-03T10:29:45.000Z</time>
      </trkpt>
      <trkpt lat="44.12184" lon="3.12784">
        <ele>845</ele>
        <time>2020-10-03T10:29:46.000Z</time>
      </trkpt>
      <trkpt lat="44.12182" lon="3.12786">
        <ele>845</ele>
        <time>2020-10-03T10:29:47.000Z</time>
      </trkpt>
      <trkpt lat="44.12176" lon="3.1279">
        <ele>845.20001220703</ele>
        <time>2020-10-03T10:29:49.000Z</time>
      </trkpt>
      <trkpt lat="44.1217" lon="3.12794">
        <ele>845.20001220703</ele>
        <time>2020-10-03T10:29:51.000Z</time>
      </trkpt>
      <trkpt lat="44.12164" lon="3.12797">
        <ele>845.40002441406</ele>
        <time>2020-10-03T10:29:53.000Z</time>
      </trkpt>
      <trkpt lat="44.12162" lon="3.12799">
        <ele>845.40002441406</ele>
        <time>2020-10-03T10:29:54.000Z</time>
      </trkpt>
      <trkpt lat="44.12159" lon="3.12801">
        <ele>845.40002441406</ele>
        <time>2020-10-03T10:29:55.000Z</time>
      </trkpt>
      <trkpt lat="44.12155" lon="3.12804">
        <ele>845.40002441406</ele>
        <time>2020-10-03T10:29:57.000Z</time>
      </trkpt>
      <trkpt lat="44.12151" lon="3.12807">
        <ele>845.40002441406</ele>
        <time>2020-10-03T10:29:59.000Z</time>
      </trkpt>
      <trkpt lat="44.1215" lon="3.1281">
        <ele>845.20001220703</ele>
        <time>2020-10-03T10:30:00.000Z</time>
      </trkpt>
      <trkpt lat="44.12147" lon="3.12811">
        <ele>845.20001220703</ele>
        <time>2020-10-03T10:30:01.000Z</time>
      </trkpt>
      <trkpt lat="44.12143" lon="3.12811">
        <ele>845</ele>
        <time>2020-10-03T10:30:03.000Z</time>
      </trkpt>
      <trkpt lat="44.12139" lon="3.12812">
        <ele>844.79998779297</ele>
        <time>2020-10-03T10:30:05.000Z</time>
      </trkpt>
      <trkpt lat="44.12133" lon="3.12813">
        <ele>844.59997558594</ele>
        <time>2020-10-03T10:30:07.000Z</time>
      </trkpt>
      <trkpt lat="44.12129" lon="3.12813">
        <ele>844.59997558594</ele>
        <time>2020-10-03T10:30:09.000Z</time>
      </trkpt>
      <trkpt lat="44.12124" lon="3.12814">
        <ele>844.59997558594</ele>
        <time>2020-10-03T10:30:11.000Z</time>
      </trkpt>
      <trkpt lat="44.12121" lon="3.12815">
        <ele>844.40002441406</ele>
        <time>2020-10-03T10:30:13.000Z</time>
      </trkpt>
      <trkpt lat="44.12119" lon="3.12816">
        <ele>844.40002441406</ele>
        <time>2020-10-03T10:30:14.000Z</time>
      </trkpt>
      <trkpt lat="44.12117" lon="3.12817">
        <ele>844.40002441406</ele>
        <time>2020-10-03T10:30:15.000Z</time>
      </trkpt>
      <trkpt lat="44.12112" lon="3.12819">
        <ele>844.40002441406</ele>
        <time>2020-10-03T10:30:17.000Z</time>
      </trkpt>
      <trkpt lat="44.12107" lon="3.12821">
        <ele>844.20001220703</ele>
        <time>2020-10-03T10:30:19.000Z</time>
      </trkpt>
      <trkpt lat="44.12103" lon="3.12821">
        <ele>844</ele>
        <time>2020-10-03T10:30:21.000Z</time>
      </trkpt>
      <trkpt lat="44.12101" lon="3.12822">
        <ele>844</ele>
        <time>2020-10-03T10:30:23.000Z</time>
      </trkpt>
      <trkpt lat="44.121" lon="3.12823">
        <ele>844</ele>
        <time>2020-10-03T10:30:25.000Z</time>
      </trkpt>
      <trkpt lat="44.121" lon="3.12824">
        <ele>844</ele>
        <time>2020-10-03T10:30:27.000Z</time>
      </trkpt>
      <trkpt lat="44.12101" lon="3.12824">
        <ele>844</ele>
        <time>2020-10-03T10:30:29.000Z</time>
      </trkpt>
      <trkpt lat="44.12102" lon="3.12824">
        <ele>844</ele>
        <time>2020-10-03T10:30:31.000Z</time>
      </trkpt>
      <trkpt lat="44.12102" lon="3.12824">
        <ele>843.79998779297</ele>
        <time>2020-10-03T10:30:33.000Z</time>
      </trkpt>
      <trkpt lat="44.12103" lon="3.12825">
        <ele>844</ele>
        <time>2020-10-03T10:30:35.000Z</time>
      </trkpt>
      <trkpt lat="44.12102" lon="3.12824">
        <ele>843.79998779297</ele>
        <time>2020-10-03T10:30:37.000Z</time>
      </trkpt>
      <trkpt lat="44.12102" lon="3.12824">
        <ele>843.79998779297</ele>
        <time>2020-10-03T10:30:39.000Z</time>
      </trkpt>
      <trkpt lat="44.12101" lon="3.12824">
        <ele>843.79998779297</ele>
        <time>2020-10-03T10:30:41.000Z</time>
      </trkpt>
      <trkpt lat="44.12101" lon="3.12823">
        <ele>843.59997558594</ele>
        <time>2020-10-03T10:30:43.000Z</time>
      </trkpt>
      <trkpt lat="44.121" lon="3.12823">
        <ele>843.59997558594</ele>
        <time>2020-10-03T10:30:45.000Z</time>
      </trkpt>
      <trkpt lat="44.12099" lon="3.12824">
        <ele>843.59997558594</ele>
        <time>2020-10-03T10:30:47.000Z</time>
      </trkpt>
      <trkpt lat="44.12099" lon="3.12824">
        <ele>843.59997558594</ele>
        <time>2020-10-03T10:30:49.000Z</time>
      </trkpt>
      <trkpt lat="44.12098" lon="3.12824">
        <ele>843.59997558594</ele>
        <time>2020-10-03T10:30:51.000Z</time>
      </trkpt>
      <trkpt lat="44.12098" lon="3.12825">
        <ele>843.59997558594</ele>
        <time>2020-10-03T10:30:53.000Z</time>
      </trkpt>
      <trkpt lat="44.12098" lon="3.12825">
        <ele>843.59997558594</ele>
        <time>2020-10-03T10:30:54.000Z</time>
      </trkpt>
      <trkpt lat="44.12097" lon="3.12825">
        <ele>843.59997558594</ele>
        <time>2020-10-03T10:30:55.000Z</time>
      </trkpt>
      <trkpt lat="44.12096" lon="3.12824">
        <ele>843.59997558594</ele>
        <time>2020-10-03T10:30:57.000Z</time>
      </trkpt>
      <trkpt lat="44.12096" lon="3.12825">
        <ele>843.59997558594</ele>
        <time>2020-10-03T10:30:59.000Z</time>
      </trkpt>
      <trkpt lat="44.12096" lon="3.12825">
        <ele>843.59997558594</ele>
        <time>2020-10-03T10:31:01.000Z</time>
      </trkpt>
      <trkpt lat="44.12095" lon="3.12825">
        <ele>843.59997558594</ele>
        <time>2020-10-03T10:31:02.000Z</time>
      </trkpt>
      <trkpt lat="44.12095" lon="3.12825">
        <ele>843.59997558594</ele>
        <time>2020-10-03T10:31:03.000Z</time>
      </trkpt>
      <trkpt lat="44.12094" lon="3.12824">
        <ele>843.59997558594</ele>
        <time>2020-10-03T10:31:05.000Z</time>
      </trkpt>
      <trkpt lat="44.12093" lon="3.12824">
        <ele>843.59997558594</ele>
        <time>2020-10-03T10:31:07.000Z</time>
      </trkpt>
      <trkpt lat="44.12092" lon="3.12824">
        <ele>843.59997558594</ele>
        <time>2020-10-03T10:31:09.000Z</time>
      </trkpt>
      <trkpt lat="44.12092" lon="3.12824">
        <ele>843.59997558594</ele>
        <time>2020-10-03T10:31:11.000Z</time>
      </trkpt>
      <trkpt lat="44.12093" lon="3.12824">
        <ele>843.20001220703</ele>
        <time>2020-10-03T10:31:13.000Z</time>
      </trkpt>
      <trkpt lat="44.12093" lon="3.12824">
        <ele>843.20001220703</ele>
        <time>2020-10-03T10:31:15.000Z</time>
      </trkpt>
      <trkpt lat="44.12094" lon="3.12824">
        <ele>843.20001220703</ele>
        <time>2020-10-03T10:31:17.000Z</time>
      </trkpt>
      <trkpt lat="44.12093" lon="3.12823">
        <ele>843.20001220703</ele>
        <time>2020-10-03T10:31:19.000Z</time>
      </trkpt>
      <trkpt lat="44.12093" lon="3.12823">
        <ele>843.20001220703</ele>
        <time>2020-10-03T10:31:21.000Z</time>
      </trkpt>
      <trkpt lat="44.12092" lon="3.12826">
        <ele>843.20001220703</ele>
        <time>2020-10-03T10:31:22.000Z</time>
      </trkpt>
      <trkpt lat="44.1209" lon="3.12829">
        <ele>843.20001220703</ele>
        <time>2020-10-03T10:31:23.000Z</time>
      </trkpt>
      <trkpt lat="44.12086" lon="3.12835">
        <ele>843.20001220703</ele>
        <time>2020-10-03T10:31:25.000Z</time>
      </trkpt>
      <trkpt lat="44.12084" lon="3.12838">
        <ele>843.20001220703</ele>
        <time>2020-10-03T10:31:26.000Z</time>
      </trkpt>
      <trkpt lat="44.12082" lon="3.12843">
        <ele>843.20001220703</ele>
        <time>2020-10-03T10:31:27.000Z</time>
      </trkpt>
      <trkpt lat="44.12081" lon="3.12847">
        <ele>843.20001220703</ele>
        <time>2020-10-03T10:31:28.000Z</time>
      </trkpt>
      <trkpt lat="44.12079" lon="3.12853">
        <ele>843</ele>
        <time>2020-10-03T10:31:29.000Z</time>
      </trkpt>
      <trkpt lat="44.12077" lon="3.12866">
        <ele>842.59997558594</ele>
        <time>2020-10-03T10:31:31.000Z</time>
      </trkpt>
      <trkpt lat="44.12077" lon="3.12881">
        <ele>841.79998779297</ele>
        <time>2020-10-03T10:31:33.000Z</time>
      </trkpt>
      <trkpt lat="44.12078" lon="3.12893">
        <ele>841</ele>
        <time>2020-10-03T10:31:35.000Z</time>
      </trkpt>
      <trkpt lat="44.1208" lon="3.12901">
        <ele>840.59997558594</ele>
        <time>2020-10-03T10:31:36.000Z</time>
      </trkpt>
      <trkpt lat="44.12081" lon="3.12909">
        <ele>840</ele>
        <time>2020-10-03T10:31:37.000Z</time>
      </trkpt>
      <trkpt lat="44.12083" lon="3.12919">
        <ele>839.59997558594</ele>
        <time>2020-10-03T10:31:38.000Z</time>
      </trkpt>
      <trkpt lat="44.12084" lon="3.12928">
        <ele>839</ele>
        <time>2020-10-03T10:31:39.000Z</time>
      </trkpt>
      <trkpt lat="44.12088" lon="3.12944">
        <ele>838</ele>
        <time>2020-10-03T10:31:41.000Z</time>
      </trkpt>
      <trkpt lat="44.1209" lon="3.1295">
        <ele>837.40002441406</ele>
        <time>2020-10-03T10:31:42.000Z</time>
      </trkpt>
      <trkpt lat="44.12093" lon="3.12955">
        <ele>837</ele>
        <time>2020-10-03T10:31:43.000Z</time>
      </trkpt>
      <trkpt lat="44.12099" lon="3.12961">
        <ele>836.20001220703</ele>
        <time>2020-10-03T10:31:45.000Z</time>
      </trkpt>
      <trkpt lat="44.12103" lon="3.12965">
        <ele>836</ele>
        <time>2020-10-03T10:31:46.000Z</time>
      </trkpt>
      <trkpt lat="44.12107" lon="3.1297">
        <ele>835.40002441406</ele>
        <time>2020-10-03T10:31:47.000Z</time>
      </trkpt>
      <trkpt lat="44.12111" lon="3.12974">
        <ele>834.79998779297</ele>
        <time>2020-10-03T10:31:48.000Z</time>
      </trkpt>
      <trkpt lat="44.12114" lon="3.12979">
        <ele>834.59997558594</ele>
        <time>2020-10-03T10:31:49.000Z</time>
      </trkpt>
      <trkpt lat="44.12121" lon="3.12987">
        <ele>834.20001220703</ele>
        <time>2020-10-03T10:31:51.000Z</time>
      </trkpt>
      <trkpt lat="44.12129" lon="3.12994">
        <ele>834.20001220703</ele>
        <time>2020-10-03T10:31:53.000Z</time>
      </trkpt>
      <trkpt lat="44.12132" lon="3.12997">
        <ele>834</ele>
        <time>2020-10-03T10:31:54.000Z</time>
      </trkpt>
      <trkpt lat="44.12136" lon="3.13003">
        <ele>834</ele>
        <time>2020-10-03T10:31:55.000Z</time>
      </trkpt>
      <trkpt lat="44.12143" lon="3.13012">
        <ele>833.79998779297</ele>
        <time>2020-10-03T10:31:57.000Z</time>
      </trkpt>
      <trkpt lat="44.12145" lon="3.13019">
        <ele>833.79998779297</ele>
        <time>2020-10-03T10:31:58.000Z</time>
      </trkpt>
      <trkpt lat="44.12147" lon="3.13027">
        <ele>833.79998779297</ele>
        <time>2020-10-03T10:31:59.000Z</time>
      </trkpt>
      <trkpt lat="44.12147" lon="3.13043">
        <ele>833.59997558594</ele>
        <time>2020-10-03T10:32:01.000Z</time>
      </trkpt>
      <trkpt lat="44.12148" lon="3.13053">
        <ele>833.20001220703</ele>
        <time>2020-10-03T10:32:02.000Z</time>
      </trkpt>
      <trkpt lat="44.12149" lon="3.13059">
        <ele>833</ele>
        <time>2020-10-03T10:32:03.000Z</time>
      </trkpt>
      <trkpt lat="44.1215" lon="3.13064">
        <ele>832.40002441406</ele>
        <time>2020-10-03T10:32:04.000Z</time>
      </trkpt>
      <trkpt lat="44.12152" lon="3.13069">
        <ele>831.40002441406</ele>
        <time>2020-10-03T10:32:05.000Z</time>
      </trkpt>
      <trkpt lat="44.12154" lon="3.13073">
        <ele>830.59997558594</ele>
        <time>2020-10-03T10:32:06.000Z</time>
      </trkpt>
      <trkpt lat="44.12157" lon="3.13078">
        <ele>829.79998779297</ele>
        <time>2020-10-03T10:32:07.000Z</time>
      </trkpt>
      <trkpt lat="44.1216" lon="3.13084">
        <ele>829.20001220703</ele>
        <time>2020-10-03T10:32:08.000Z</time>
      </trkpt>
      <trkpt lat="44.12162" lon="3.1309">
        <ele>828.59997558594</ele>
        <time>2020-10-03T10:32:09.000Z</time>
      </trkpt>
      <trkpt lat="44.12166" lon="3.13095">
        <ele>827.79998779297</ele>
        <time>2020-10-03T10:32:10.000Z</time>
      </trkpt>
      <trkpt lat="44.1217" lon="3.13101">
        <ele>827</ele>
        <time>2020-10-03T10:32:11.000Z</time>
      </trkpt>
      <trkpt lat="44.12175" lon="3.13107">
        <ele>826.40002441406</ele>
        <time>2020-10-03T10:32:12.000Z</time>
      </trkpt>
      <trkpt lat="44.12179" lon="3.13112">
        <ele>826</ele>
        <time>2020-10-03T10:32:13.000Z</time>
      </trkpt>
      <trkpt lat="44.12183" lon="3.13119">
        <ele>825.40002441406</ele>
        <time>2020-10-03T10:32:14.000Z</time>
      </trkpt>
      <trkpt lat="44.12188" lon="3.13128">
        <ele>824.79998779297</ele>
        <time>2020-10-03T10:32:15.000Z</time>
      </trkpt>
      <trkpt lat="44.12195" lon="3.13144">
        <ele>824</ele>
        <time>2020-10-03T10:32:17.000Z</time>
      </trkpt>
      <trkpt lat="44.12197" lon="3.1315">
        <ele>823.20001220703</ele>
        <time>2020-10-03T10:32:18.000Z</time>
      </trkpt>
      <trkpt lat="44.12198" lon="3.13158">
        <ele>822.79998779297</ele>
        <time>2020-10-03T10:32:19.000Z</time>
      </trkpt>
      <trkpt lat="44.12197" lon="3.13172">
        <ele>821.40002441406</ele>
        <time>2020-10-03T10:32:21.000Z</time>
      </trkpt>
      <trkpt lat="44.12194" lon="3.13188">
        <ele>820.20001220703</ele>
        <time>2020-10-03T10:32:23.000Z</time>
      </trkpt>
      <trkpt lat="44.12192" lon="3.13196">
        <ele>819.59997558594</ele>
        <time>2020-10-03T10:32:24.000Z</time>
      </trkpt>
      <trkpt lat="44.1219" lon="3.13203">
        <ele>818.40002441406</ele>
        <time>2020-10-03T10:32:25.000Z</time>
      </trkpt>
      <trkpt lat="44.12188" lon="3.13211">
        <ele>817.79998779297</ele>
        <time>2020-10-03T10:32:26.000Z</time>
      </trkpt>
      <trkpt lat="44.12185" lon="3.13219">
        <ele>817.40002441406</ele>
        <time>2020-10-03T10:32:27.000Z</time>
      </trkpt>
      <trkpt lat="44.12183" lon="3.13228">
        <ele>816.79998779297</ele>
        <time>2020-10-03T10:32:28.000Z</time>
      </trkpt>
      <trkpt lat="44.12183" lon="3.1324">
        <ele>816.40002441406</ele>
        <time>2020-10-03T10:32:29.000Z</time>
      </trkpt>
      <trkpt lat="44.12182" lon="3.1325">
        <ele>816</ele>
        <time>2020-10-03T10:32:30.000Z</time>
      </trkpt>
      <trkpt lat="44.12183" lon="3.1326">
        <ele>815.40002441406</ele>
        <time>2020-10-03T10:32:31.000Z</time>
      </trkpt>
      <trkpt lat="44.12185" lon="3.13269">
        <ele>814.79998779297</ele>
        <time>2020-10-03T10:32:32.000Z</time>
      </trkpt>
      <trkpt lat="44.12187" lon="3.13277">
        <ele>814.40002441406</ele>
        <time>2020-10-03T10:32:33.000Z</time>
      </trkpt>
      <trkpt lat="44.12192" lon="3.13286">
        <ele>814</ele>
        <time>2020-10-03T10:32:34.000Z</time>
      </trkpt>
      <trkpt lat="44.12196" lon="3.13294">
        <ele>813.59997558594</ele>
        <time>2020-10-03T10:32:35.000Z</time>
      </trkpt>
      <trkpt lat="44.122" lon="3.13301">
        <ele>813</ele>
        <time>2020-10-03T10:32:36.000Z</time>
      </trkpt>
      <trkpt lat="44.12204" lon="3.1331">
        <ele>812.40002441406</ele>
        <time>2020-10-03T10:32:37.000Z</time>
      </trkpt>
      <trkpt lat="44.1221" lon="3.13326">
        <ele>811.20001220703</ele>
        <time>2020-10-03T10:32:39.000Z</time>
      </trkpt>
      <trkpt lat="44.12214" lon="3.13342">
        <ele>810.40002441406</ele>
        <time>2020-10-03T10:32:41.000Z</time>
      </trkpt>
      <trkpt lat="44.12216" lon="3.1335">
        <ele>810</ele>
        <time>2020-10-03T10:32:42.000Z</time>
      </trkpt>
      <trkpt lat="44.12217" lon="3.13356">
        <ele>809.59997558594</ele>
        <time>2020-10-03T10:32:43.000Z</time>
      </trkpt>
      <trkpt lat="44.12219" lon="3.13368">
        <ele>809.20001220703</ele>
        <time>2020-10-03T10:32:45.000Z</time>
      </trkpt>
      <trkpt lat="44.12221" lon="3.13379">
        <ele>808.79998779297</ele>
        <time>2020-10-03T10:32:47.000Z</time>
      </trkpt>
      <trkpt lat="44.12225" lon="3.13391">
        <ele>808.79998779297</ele>
        <time>2020-10-03T10:32:49.000Z</time>
      </trkpt>
      <trkpt lat="44.12228" lon="3.13397">
        <ele>808.79998779297</ele>
        <time>2020-10-03T10:32:50.000Z</time>
      </trkpt>
      <trkpt lat="44.1223" lon="3.13402">
        <ele>808.79998779297</ele>
        <time>2020-10-03T10:32:51.000Z</time>
      </trkpt>
      <trkpt lat="44.12235" lon="3.13412">
        <ele>808.79998779297</ele>
        <time>2020-10-03T10:32:53.000Z</time>
      </trkpt>
      <trkpt lat="44.12239" lon="3.1342">
        <ele>808.79998779297</ele>
        <time>2020-10-03T10:32:55.000Z</time>
      </trkpt>
      <trkpt lat="44.12243" lon="3.13428">
        <ele>809</ele>
        <time>2020-10-03T10:32:57.000Z</time>
      </trkpt>
      <trkpt lat="44.12247" lon="3.13434">
        <ele>809</ele>
        <time>2020-10-03T10:32:59.000Z</time>
      </trkpt>
      <trkpt lat="44.12252" lon="3.13441">
        <ele>809.20001220703</ele>
        <time>2020-10-03T10:33:01.000Z</time>
      </trkpt>
      <trkpt lat="44.12257" lon="3.13447">
        <ele>809.20001220703</ele>
        <time>2020-10-03T10:33:03.000Z</time>
      </trkpt>
      <trkpt lat="44.12262" lon="3.13453">
        <ele>809.20001220703</ele>
        <time>2020-10-03T10:33:05.000Z</time>
      </trkpt>
      <trkpt lat="44.12267" lon="3.13461">
        <ele>809.20001220703</ele>
        <time>2020-10-03T10:33:07.000Z</time>
      </trkpt>
      <trkpt lat="44.12271" lon="3.1347">
        <ele>809</ele>
        <time>2020-10-03T10:33:09.000Z</time>
      </trkpt>
      <trkpt lat="44.12273" lon="3.13475">
        <ele>809</ele>
        <time>2020-10-03T10:33:10.000Z</time>
      </trkpt>
      <trkpt lat="44.12274" lon="3.13478">
        <ele>809</ele>
        <time>2020-10-03T10:33:11.000Z</time>
      </trkpt>
      <trkpt lat="44.12275" lon="3.13482">
        <ele>808.79998779297</ele>
        <time>2020-10-03T10:33:13.000Z</time>
      </trkpt>
      <trkpt lat="44.12276" lon="3.13484">
        <ele>808.59997558594</ele>
        <time>2020-10-03T10:33:14.000Z</time>
      </trkpt>
      <trkpt lat="44.12276" lon="3.13485">
        <ele>808.40002441406</ele>
        <time>2020-10-03T10:33:15.000Z</time>
      </trkpt>
      <trkpt lat="44.12276" lon="3.13486">
        <ele>807.79998779297</ele>
        <time>2020-10-03T10:33:17.000Z</time>
      </trkpt>
      <trkpt lat="44.12277" lon="3.13486">
        <ele>807.40002441406</ele>
        <time>2020-10-03T10:33:18.000Z</time>
      </trkpt>
      <trkpt lat="44.12276" lon="3.13486">
        <ele>807.20001220703</ele>
        <time>2020-10-03T10:33:19.000Z</time>
      </trkpt>
      <trkpt lat="44.12276" lon="3.13486">
        <ele>807.20001220703</ele>
        <time>2020-10-03T10:33:21.000Z</time>
      </trkpt>
      <trkpt lat="44.12277" lon="3.13486">
        <ele>807</ele>
        <time>2020-10-03T10:33:23.000Z</time>
      </trkpt>
      <trkpt lat="44.12277" lon="3.13487">
        <ele>807</ele>
        <time>2020-10-03T10:33:25.000Z</time>
      </trkpt>
      <trkpt lat="44.12277" lon="3.13492">
        <ele>807</ele>
        <time>2020-10-03T10:33:27.000Z</time>
      </trkpt>
      <trkpt lat="44.12277" lon="3.13496">
        <ele>807</ele>
        <time>2020-10-03T10:33:28.000Z</time>
      </trkpt>
      <trkpt lat="44.12277" lon="3.135">
        <ele>807</ele>
        <time>2020-10-03T10:33:29.000Z</time>
      </trkpt>
      <trkpt lat="44.12277" lon="3.13509">
        <ele>807</ele>
        <time>2020-10-03T10:33:31.000Z</time>
      </trkpt>
      <trkpt lat="44.12274" lon="3.13514">
        <ele>806.79998779297</ele>
        <time>2020-10-03T10:33:33.000Z</time>
      </trkpt>
      <trkpt lat="44.12271" lon="3.13517">
        <ele>806.40002441406</ele>
        <time>2020-10-03T10:33:35.000Z</time>
      </trkpt>
      <trkpt lat="44.12266" lon="3.13522">
        <ele>805.59997558594</ele>
        <time>2020-10-03T10:33:37.000Z</time>
      </trkpt>
      <trkpt lat="44.12263" lon="3.13527">
        <ele>805.40002441406</ele>
        <time>2020-10-03T10:33:38.000Z</time>
      </trkpt>
      <trkpt lat="44.1226" lon="3.13534">
        <ele>805.20001220703</ele>
        <time>2020-10-03T10:33:39.000Z</time>
      </trkpt>
      <trkpt lat="44.12253" lon="3.13546">
        <ele>804.79998779297</ele>
        <time>2020-10-03T10:33:41.000Z</time>
      </trkpt>
      <trkpt lat="44.12245" lon="3.13564">
        <ele>804.79998779297</ele>
        <time>2020-10-03T10:33:43.000Z</time>
      </trkpt>
      <trkpt lat="44.12237" lon="3.1358">
        <ele>804.59997558594</ele>
        <time>2020-10-03T10:33:45.000Z</time>
      </trkpt>
      <trkpt lat="44.1223" lon="3.13593">
        <ele>804.20001220703</ele>
        <time>2020-10-03T10:33:47.000Z</time>
      </trkpt>
      <trkpt lat="44.12226" lon="3.13601">
        <ele>803.79998779297</ele>
        <time>2020-10-03T10:33:48.000Z</time>
      </trkpt>
      <trkpt lat="44.12223" lon="3.13609">
        <ele>803.20001220703</ele>
        <time>2020-10-03T10:33:49.000Z</time>
      </trkpt>
      <trkpt lat="44.12221" lon="3.13616">
        <ele>802.79998779297</ele>
        <time>2020-10-03T10:33:50.000Z</time>
      </trkpt>
      <trkpt lat="44.12219" lon="3.13622">
        <ele>802</ele>
        <time>2020-10-03T10:33:51.000Z</time>
      </trkpt>
      <trkpt lat="44.12218" lon="3.13629">
        <ele>801.59997558594</ele>
        <time>2020-10-03T10:33:52.000Z</time>
      </trkpt>
      <trkpt lat="44.12217" lon="3.13637">
        <ele>801.20001220703</ele>
        <time>2020-10-03T10:33:53.000Z</time>
      </trkpt>
      <trkpt lat="44.12215" lon="3.13647">
        <ele>800</ele>
        <time>2020-10-03T10:33:55.000Z</time>
      </trkpt>
      <trkpt lat="44.12211" lon="3.13654">
        <ele>798.79998779297</ele>
        <time>2020-10-03T10:33:57.000Z</time>
      </trkpt>
      <trkpt lat="44.12208" lon="3.13656">
        <ele>798</ele>
        <time>2020-10-03T10:33:58.000Z</time>
      </trkpt>
      <trkpt lat="44.12204" lon="3.13659">
        <ele>797</ele>
        <time>2020-10-03T10:33:59.000Z</time>
      </trkpt>
      <trkpt lat="44.12197" lon="3.13663">
        <ele>795.59997558594</ele>
        <time>2020-10-03T10:34:01.000Z</time>
      </trkpt>
      <trkpt lat="44.12192" lon="3.13667">
        <ele>795</ele>
        <time>2020-10-03T10:34:02.000Z</time>
      </trkpt>
      <trkpt lat="44.12189" lon="3.13673">
        <ele>794.20001220703</ele>
        <time>2020-10-03T10:34:03.000Z</time>
      </trkpt>
      <trkpt lat="44.12182" lon="3.13683">
        <ele>793.59997558594</ele>
        <time>2020-10-03T10:34:05.000Z</time>
      </trkpt>
      <trkpt lat="44.12178" lon="3.13686">
        <ele>793.40002441406</ele>
        <time>2020-10-03T10:34:06.000Z</time>
      </trkpt>
      <trkpt lat="44.12175" lon="3.13689">
        <ele>793.20001220703</ele>
        <time>2020-10-03T10:34:07.000Z</time>
      </trkpt>
      <trkpt lat="44.12172" lon="3.1369">
        <ele>792.79998779297</ele>
        <time>2020-10-03T10:34:08.000Z</time>
      </trkpt>
      <trkpt lat="44.12169" lon="3.1369">
        <ele>792.40002441406</ele>
        <time>2020-10-03T10:34:09.000Z</time>
      </trkpt>
      <trkpt lat="44.12166" lon="3.1369">
        <ele>791.79998779297</ele>
        <time>2020-10-03T10:34:10.000Z</time>
      </trkpt>
      <trkpt lat="44.12162" lon="3.13692">
        <ele>791.20001220703</ele>
        <time>2020-10-03T10:34:11.000Z</time>
      </trkpt>
      <trkpt lat="44.12159" lon="3.13693">
        <ele>790.59997558594</ele>
        <time>2020-10-03T10:34:12.000Z</time>
      </trkpt>
      <trkpt lat="44.12155" lon="3.13693">
        <ele>789.79998779297</ele>
        <time>2020-10-03T10:34:13.000Z</time>
      </trkpt>
      <trkpt lat="44.12149" lon="3.13693">
        <ele>789</ele>
        <time>2020-10-03T10:34:14.000Z</time>
      </trkpt>
      <trkpt lat="44.12142" lon="3.13695">
        <ele>788</ele>
        <time>2020-10-03T10:34:15.000Z</time>
      </trkpt>
      <trkpt lat="44.12135" lon="3.13698">
        <ele>787.59997558594</ele>
        <time>2020-10-03T10:34:16.000Z</time>
      </trkpt>
      <trkpt lat="44.12131" lon="3.137">
        <ele>787.20001220703</ele>
        <time>2020-10-03T10:34:17.000Z</time>
      </trkpt>
      <trkpt lat="44.12123" lon="3.1371">
        <ele>786.20001220703</ele>
        <time>2020-10-03T10:34:19.000Z</time>
      </trkpt>
      <trkpt lat="44.12117" lon="3.13719">
        <ele>785.59997558594</ele>
        <time>2020-10-03T10:34:21.000Z</time>
      </trkpt>
      <trkpt lat="44.12112" lon="3.13721">
        <ele>785.20001220703</ele>
        <time>2020-10-03T10:34:22.000Z</time>
      </trkpt>
      <trkpt lat="44.12107" lon="3.13722">
        <ele>784.59997558594</ele>
        <time>2020-10-03T10:34:23.000Z</time>
      </trkpt>
      <trkpt lat="44.121" lon="3.1373">
        <ele>782.79998779297</ele>
        <time>2020-10-03T10:34:25.000Z</time>
      </trkpt>
      <trkpt lat="44.12097" lon="3.13735">
        <ele>781.79998779297</ele>
        <time>2020-10-03T10:34:26.000Z</time>
      </trkpt>
      <trkpt lat="44.12092" lon="3.13738">
        <ele>781</ele>
        <time>2020-10-03T10:34:27.000Z</time>
      </trkpt>
      <trkpt lat="44.12087" lon="3.1374">
        <ele>780</ele>
        <time>2020-10-03T10:34:28.000Z</time>
      </trkpt>
      <trkpt lat="44.1208" lon="3.13741">
        <ele>778.79998779297</ele>
        <time>2020-10-03T10:34:29.000Z</time>
      </trkpt>
      <trkpt lat="44.12073" lon="3.13744">
        <ele>777.79998779297</ele>
        <time>2020-10-03T10:34:30.000Z</time>
      </trkpt>
      <trkpt lat="44.12066" lon="3.13745">
        <ele>777</ele>
        <time>2020-10-03T10:34:31.000Z</time>
      </trkpt>
      <trkpt lat="44.12061" lon="3.13746">
        <ele>776.59997558594</ele>
        <time>2020-10-03T10:34:32.000Z</time>
      </trkpt>
      <trkpt lat="44.12057" lon="3.13745">
        <ele>776</ele>
        <time>2020-10-03T10:34:33.000Z</time>
      </trkpt>
      <trkpt lat="44.12055" lon="3.13744">
        <ele>775.20001220703</ele>
        <time>2020-10-03T10:34:34.000Z</time>
      </trkpt>
      <trkpt lat="44.12053" lon="3.13744">
        <ele>774.40002441406</ele>
        <time>2020-10-03T10:34:35.000Z</time>
      </trkpt>
      <trkpt lat="44.12052" lon="3.13746">
        <ele>773.59997558594</ele>
        <time>2020-10-03T10:34:36.000Z</time>
      </trkpt>
      <trkpt lat="44.12052" lon="3.13747">
        <ele>772.59997558594</ele>
        <time>2020-10-03T10:34:37.000Z</time>
      </trkpt>
      <trkpt lat="44.12051" lon="3.13748">
        <ele>771.59997558594</ele>
        <time>2020-10-03T10:34:38.000Z</time>
      </trkpt>
      <trkpt lat="44.12051" lon="3.13748">
        <ele>770.40002441406</ele>
        <time>2020-10-03T10:34:39.000Z</time>
      </trkpt>
      <trkpt lat="44.12051" lon="3.13748">
        <ele>769</ele>
        <time>2020-10-03T10:34:40.000Z</time>
      </trkpt>
      <trkpt lat="44.12051" lon="3.13748">
        <ele>767.79998779297</ele>
        <time>2020-10-03T10:34:41.000Z</time>
      </trkpt>
      <trkpt lat="44.12051" lon="3.13748">
        <ele>766.59997558594</ele>
        <time>2020-10-03T10:34:42.000Z</time>
      </trkpt>
      <trkpt lat="44.12051" lon="3.13748">
        <ele>766</ele>
        <time>2020-10-03T10:34:43.000Z</time>
      </trkpt>
      <trkpt lat="44.12051" lon="3.13748">
        <ele>765.40002441406</ele>
        <time>2020-10-03T10:34:45.000Z</time>
      </trkpt>
      <trkpt lat="44.12051" lon="3.13748">
        <ele>765.40002441406</ele>
        <time>2020-10-03T10:34:46.000Z</time>
      </trkpt>
      <trkpt lat="44.12051" lon="3.13749">
        <ele>765.20001220703</ele>
        <time>2020-10-03T10:34:47.000Z</time>
      </trkpt>
      <trkpt lat="44.12052" lon="3.1375">
        <ele>765.20001220703</ele>
        <time>2020-10-03T10:34:49.000Z</time>
      </trkpt>
      <trkpt lat="44.12052" lon="3.13751">
        <ele>765</ele>
        <time>2020-10-03T10:34:51.000Z</time>
      </trkpt>
      <trkpt lat="44.12052" lon="3.13751">
        <ele>765</ele>
        <time>2020-10-03T10:34:53.000Z</time>
      </trkpt>
      <trkpt lat="44.12052" lon="3.13751">
        <ele>765</ele>
        <time>2020-10-03T10:34:54.000Z</time>
      </trkpt>
      <trkpt lat="44.12052" lon="3.13752">
        <ele>765</ele>
        <time>2020-10-03T10:34:55.000Z</time>
      </trkpt>
      <trkpt lat="44.12052" lon="3.13753">
        <ele>765</ele>
        <time>2020-10-03T10:34:57.000Z</time>
      </trkpt>
      <trkpt lat="44.12052" lon="3.13754">
        <ele>764.79998779297</ele>
        <time>2020-10-03T10:34:59.000Z</time>
      </trkpt>
      <trkpt lat="44.12052" lon="3.13755">
        <ele>764.79998779297</ele>
        <time>2020-10-03T10:35:01.000Z</time>
      </trkpt>
      <trkpt lat="44.12052" lon="3.13755">
        <ele>764.79998779297</ele>
        <time>2020-10-03T10:35:03.000Z</time>
      </trkpt>
      <trkpt lat="44.12052" lon="3.13755">
        <ele>764.79998779297</ele>
        <time>2020-10-03T10:35:04.000Z</time>
      </trkpt>
      <trkpt lat="44.12052" lon="3.13755">
        <ele>764.79998779297</ele>
        <time>2020-10-03T10:35:05.000Z</time>
      </trkpt>
      <trkpt lat="44.12052" lon="3.13755">
        <ele>764.79998779297</ele>
        <time>2020-10-03T10:35:07.000Z</time>
      </trkpt>
      <trkpt lat="44.12052" lon="3.13755">
        <ele>764.79998779297</ele>
        <time>2020-10-03T10:35:09.000Z</time>
      </trkpt>
      <trkpt lat="44.12052" lon="3.13755">
        <ele>764.79998779297</ele>
        <time>2020-10-03T10:35:11.000Z</time>
      </trkpt>
      <trkpt lat="44.12052" lon="3.13755">
        <ele>765</ele>
        <time>2020-10-03T10:35:13.000Z</time>
      </trkpt>
      <trkpt lat="44.12052" lon="3.13755">
        <ele>765</ele>
        <time>2020-10-03T10:35:15.000Z</time>
      </trkpt>
      <trkpt lat="44.12052" lon="3.13755">
        <ele>765</ele>
        <time>2020-10-03T10:35:17.000Z</time>
      </trkpt>
      <trkpt lat="44.12052" lon="3.13755">
        <ele>765.20001220703</ele>
        <time>2020-10-03T10:35:19.000Z</time>
      </trkpt>
      <trkpt lat="44.12052" lon="3.13755">
        <ele>765.20001220703</ele>
        <time>2020-10-03T10:35:21.000Z</time>
      </trkpt>
      <trkpt lat="44.12052" lon="3.13755">
        <ele>765.20001220703</ele>
        <time>2020-10-03T10:35:23.000Z</time>
      </trkpt>
      <trkpt lat="44.12052" lon="3.13755">
        <ele>765.40002441406</ele>
        <time>2020-10-03T10:35:25.000Z</time>
      </trkpt>
      <trkpt lat="44.12053" lon="3.13756">
        <ele>765.40002441406</ele>
        <time>2020-10-03T10:35:27.000Z</time>
      </trkpt>
      <trkpt lat="44.12054" lon="3.1376">
        <ele>765.59997558594</ele>
        <time>2020-10-03T10:35:29.000Z</time>
      </trkpt>
      <trkpt lat="44.12056" lon="3.13766">
        <ele>765.40002441406</ele>
        <time>2020-10-03T10:35:31.000Z</time>
      </trkpt>
      <trkpt lat="44.12059" lon="3.13774">
        <ele>765.59997558594</ele>
        <time>2020-10-03T10:35:33.000Z</time>
      </trkpt>
      <trkpt lat="44.1206" lon="3.1378">
        <ele>765.59997558594</ele>
        <time>2020-10-03T10:35:34.000Z</time>
      </trkpt>
      <trkpt lat="44.12061" lon="3.13787">
        <ele>765.59997558594</ele>
        <time>2020-10-03T10:35:35.000Z</time>
      </trkpt>
      <trkpt lat="44.12064" lon="3.13803">
        <ele>765.40002441406</ele>
        <time>2020-10-03T10:35:37.000Z</time>
      </trkpt>
      <trkpt lat="44.12069" lon="3.13818">
        <ele>765.20001220703</ele>
        <time>2020-10-03T10:35:39.000Z</time>
      </trkpt>
      <trkpt lat="44.12072" lon="3.13832">
        <ele>765</ele>
        <time>2020-10-03T10:35:41.000Z</time>
      </trkpt>
      <trkpt lat="44.12073" lon="3.1384">
        <ele>764.79998779297</ele>
        <time>2020-10-03T10:35:42.000Z</time>
      </trkpt>
      <trkpt lat="44.12073" lon="3.13848">
        <ele>764.59997558594</ele>
        <time>2020-10-03T10:35:43.000Z</time>
      </trkpt>
      <trkpt lat="44.12072" lon="3.13856">
        <ele>764</ele>
        <time>2020-10-03T10:35:44.000Z</time>
      </trkpt>
      <trkpt lat="44.1207" lon="3.13864">
        <ele>762.59997558594</ele>
        <time>2020-10-03T10:35:45.000Z</time>
      </trkpt>
      <trkpt lat="44.12073" lon="3.13875">
        <ele>762</ele>
        <time>2020-10-03T10:35:47.000Z</time>
      </trkpt>
      <trkpt lat="44.12075" lon="3.13879">
        <ele>761.79998779297</ele>
        <time>2020-10-03T10:35:48.000Z</time>
      </trkpt>
      <trkpt lat="44.12077" lon="3.13883">
        <ele>761.59997558594</ele>
        <time>2020-10-03T10:35:49.000Z</time>
      </trkpt>
      <trkpt lat="44.1208" lon="3.13886">
        <ele>761.20001220703</ele>
        <time>2020-10-03T10:35:50.000Z</time>
      </trkpt>
      <trkpt lat="44.12083" lon="3.1389">
        <ele>760.40002441406</ele>
        <time>2020-10-03T10:35:51.000Z</time>
      </trkpt>
      <trkpt lat="44.12085" lon="3.13895">
        <ele>759.40002441406</ele>
        <time>2020-10-03T10:35:52.000Z</time>
      </trkpt>
      <trkpt lat="44.12087" lon="3.13899">
        <ele>758.59997558594</ele>
        <time>2020-10-03T10:35:53.000Z</time>
      </trkpt>
      <trkpt lat="44.12088" lon="3.13903">
        <ele>758</ele>
        <time>2020-10-03T10:35:54.000Z</time>
      </trkpt>
      <trkpt lat="44.12088" lon="3.13906">
        <ele>757.79998779297</ele>
        <time>2020-10-03T10:35:55.000Z</time>
      </trkpt>
      <trkpt lat="44.12088" lon="3.13907">
        <ele>757.40002441406</ele>
        <time>2020-10-03T10:35:56.000Z</time>
      </trkpt>
      <trkpt lat="44.12086" lon="3.13908">
        <ele>757</ele>
        <time>2020-10-03T10:35:57.000Z</time>
      </trkpt>
      <trkpt lat="44.12083" lon="3.13909">
        <ele>756.79998779297</ele>
        <time>2020-10-03T10:35:58.000Z</time>
      </trkpt>
      <trkpt lat="44.12079" lon="3.13909">
        <ele>756.40002441406</ele>
        <time>2020-10-03T10:35:59.000Z</time>
      </trkpt>
      <trkpt lat="44.12071" lon="3.13908">
        <ele>755.40002441406</ele>
        <time>2020-10-03T10:36:01.000Z</time>
      </trkpt>
      <trkpt lat="44.12062" lon="3.13907">
        <ele>754.40002441406</ele>
        <time>2020-10-03T10:36:03.000Z</time>
      </trkpt>
      <trkpt lat="44.12058" lon="3.13906">
        <ele>754</ele>
        <time>2020-10-03T10:36:04.000Z</time>
      </trkpt>
      <trkpt lat="44.12057" lon="3.13906">
        <ele>753.59997558594</ele>
        <time>2020-10-03T10:36:05.000Z</time>
      </trkpt>
      <trkpt lat="44.12055" lon="3.13906">
        <ele>752.20001220703</ele>
        <time>2020-10-03T10:36:07.000Z</time>
      </trkpt>
      <trkpt lat="44.12054" lon="3.13906">
        <ele>751.40002441406</ele>
        <time>2020-10-03T10:36:08.000Z</time>
      </trkpt>
      <trkpt lat="44.12053" lon="3.13906">
        <ele>751</ele>
        <time>2020-10-03T10:36:09.000Z</time>
      </trkpt>
      <trkpt lat="44.12051" lon="3.13906">
        <ele>750.20001220703</ele>
        <time>2020-10-03T10:36:11.000Z</time>
      </trkpt>
      <trkpt lat="44.12049" lon="3.13906">
        <ele>749.79998779297</ele>
        <time>2020-10-03T10:36:12.000Z</time>
      </trkpt>
      <trkpt lat="44.12047" lon="3.13907">
        <ele>749.20001220703</ele>
        <time>2020-10-03T10:36:13.000Z</time>
      </trkpt>
      <trkpt lat="44.12045" lon="3.13907">
        <ele>748.40002441406</ele>
        <time>2020-10-03T10:36:14.000Z</time>
      </trkpt>
      <trkpt lat="44.12043" lon="3.13907">
        <ele>748.20001220703</ele>
        <time>2020-10-03T10:36:15.000Z</time>
      </trkpt>
      <trkpt lat="44.12042" lon="3.13905">
        <ele>747.79998779297</ele>
        <time>2020-10-03T10:36:17.000Z</time>
      </trkpt>
      <trkpt lat="44.1204" lon="3.13899">
        <ele>747.59997558594</ele>
        <time>2020-10-03T10:36:19.000Z</time>
      </trkpt>
      <trkpt lat="44.12039" lon="3.13896">
        <ele>747.20001220703</ele>
        <time>2020-10-03T10:36:20.000Z</time>
      </trkpt>
      <trkpt lat="44.12038" lon="3.13893">
        <ele>746.79998779297</ele>
        <time>2020-10-03T10:36:21.000Z</time>
      </trkpt>
      <trkpt lat="44.12035" lon="3.13889">
        <ele>745.79998779297</ele>
        <time>2020-10-03T10:36:23.000Z</time>
      </trkpt>
      <trkpt lat="44.12033" lon="3.13891">
        <ele>744.79998779297</ele>
        <time>2020-10-03T10:36:25.000Z</time>
      </trkpt>
      <trkpt lat="44.12031" lon="3.13893">
        <ele>744</ele>
        <time>2020-10-03T10:36:26.000Z</time>
      </trkpt>
      <trkpt lat="44.1203" lon="3.13895">
        <ele>743.40002441406</ele>
        <time>2020-10-03T10:36:27.000Z</time>
      </trkpt>
      <trkpt lat="44.12029" lon="3.13896">
        <ele>742.79998779297</ele>
        <time>2020-10-03T10:36:28.000Z</time>
      </trkpt>
      <trkpt lat="44.12028" lon="3.13897">
        <ele>742</ele>
        <time>2020-10-03T10:36:29.000Z</time>
      </trkpt>
      <trkpt lat="44.12028" lon="3.13898">
        <ele>741.40002441406</ele>
        <time>2020-10-03T10:36:30.000Z</time>
      </trkpt>
      <trkpt lat="44.12028" lon="3.13899">
        <ele>740.59997558594</ele>
        <time>2020-10-03T10:36:31.000Z</time>
      </trkpt>
      <trkpt lat="44.12028" lon="3.139">
        <ele>739.79998779297</ele>
        <time>2020-10-03T10:36:32.000Z</time>
      </trkpt>
      <trkpt lat="44.12028" lon="3.139">
        <ele>739.20001220703</ele>
        <time>2020-10-03T10:36:33.000Z</time>
      </trkpt>
      <trkpt lat="44.12028" lon="3.13901">
        <ele>739</ele>
        <time>2020-10-03T10:36:34.000Z</time>
      </trkpt>
      <trkpt lat="44.12027" lon="3.13903">
        <ele>738.40002441406</ele>
        <time>2020-10-03T10:36:35.000Z</time>
      </trkpt>
      <trkpt lat="44.12027" lon="3.13904">
        <ele>737.59997558594</ele>
        <time>2020-10-03T10:36:36.000Z</time>
      </trkpt>
      <trkpt lat="44.12027" lon="3.13906">
        <ele>737</ele>
        <time>2020-10-03T10:36:37.000Z</time>
      </trkpt>
      <trkpt lat="44.12026" lon="3.13908">
        <ele>736.20001220703</ele>
        <time>2020-10-03T10:36:39.000Z</time>
      </trkpt>
      <trkpt lat="44.12024" lon="3.13909">
        <ele>735.79998779297</ele>
        <time>2020-10-03T10:36:41.000Z</time>
      </trkpt>
      <trkpt lat="44.12023" lon="3.13911">
        <ele>735.59997558594</ele>
        <time>2020-10-03T10:36:43.000Z</time>
      </trkpt>
      <trkpt lat="44.12022" lon="3.13912">
        <ele>735.40002441406</ele>
        <time>2020-10-03T10:36:44.000Z</time>
      </trkpt>
      <trkpt lat="44.12022" lon="3.13912">
        <ele>735.40002441406</ele>
        <time>2020-10-03T10:36:45.000Z</time>
      </trkpt>
      <trkpt lat="44.12022" lon="3.13912">
        <ele>735.20001220703</ele>
        <time>2020-10-03T10:36:46.000Z</time>
      </trkpt>
      <trkpt lat="44.12022" lon="3.13911">
        <ele>734.79998779297</ele>
        <time>2020-10-03T10:36:47.000Z</time>
      </trkpt>
      <trkpt lat="44.12023" lon="3.13909">
        <ele>734.59997558594</ele>
        <time>2020-10-03T10:36:48.000Z</time>
      </trkpt>
      <trkpt lat="44.12023" lon="3.13907">
        <ele>734</ele>
        <time>2020-10-03T10:36:49.000Z</time>
      </trkpt>
      <trkpt lat="44.12024" lon="3.13904">
        <ele>733.20001220703</ele>
        <time>2020-10-03T10:36:51.000Z</time>
      </trkpt>
      <trkpt lat="44.12024" lon="3.13897">
        <ele>732.59997558594</ele>
        <time>2020-10-03T10:36:53.000Z</time>
      </trkpt>
      <trkpt lat="44.12024" lon="3.13894">
        <ele>732.40002441406</ele>
        <time>2020-10-03T10:36:54.000Z</time>
      </trkpt>
      <trkpt lat="44.12024" lon="3.13891">
        <ele>732.20001220703</ele>
        <time>2020-10-03T10:36:55.000Z</time>
      </trkpt>
      <trkpt lat="44.12024" lon="3.13886">
        <ele>732.20001220703</ele>
        <time>2020-10-03T10:36:56.000Z</time>
      </trkpt>
      <trkpt lat="44.12023" lon="3.13883">
        <ele>731.79998779297</ele>
        <time>2020-10-03T10:36:57.000Z</time>
      </trkpt>
      <trkpt lat="44.12022" lon="3.13882">
        <ele>731.59997558594</ele>
        <time>2020-10-03T10:36:58.000Z</time>
      </trkpt>
      <trkpt lat="44.12021" lon="3.13883">
        <ele>731.20001220703</ele>
        <time>2020-10-03T10:36:59.000Z</time>
      </trkpt>
      <trkpt lat="44.12021" lon="3.13884">
        <ele>730.40002441406</ele>
        <time>2020-10-03T10:37:00.000Z</time>
      </trkpt>
      <trkpt lat="44.1202" lon="3.13885">
        <ele>729.59997558594</ele>
        <time>2020-10-03T10:37:01.000Z</time>
      </trkpt>
      <trkpt lat="44.12019" lon="3.13887">
        <ele>728.59997558594</ele>
        <time>2020-10-03T10:37:02.000Z</time>
      </trkpt>
      <trkpt lat="44.12019" lon="3.13888">
        <ele>728</ele>
        <time>2020-10-03T10:37:03.000Z</time>
      </trkpt>
      <trkpt lat="44.12018" lon="3.13888">
        <ele>727.40002441406</ele>
        <time>2020-10-03T10:37:04.000Z</time>
      </trkpt>
      <trkpt lat="44.12018" lon="3.13889">
        <ele>726.59997558594</ele>
        <time>2020-10-03T10:37:05.000Z</time>
      </trkpt>
      <trkpt lat="44.12018" lon="3.13888">
        <ele>725.59997558594</ele>
        <time>2020-10-03T10:37:06.000Z</time>
      </trkpt>
      <trkpt lat="44.12017" lon="3.1389">
        <ele>725.20001220703</ele>
        <time>2020-10-03T10:37:07.000Z</time>
      </trkpt>
      <trkpt lat="44.12017" lon="3.13891">
        <ele>724.59997558594</ele>
        <time>2020-10-03T10:37:08.000Z</time>
      </trkpt>
      <trkpt lat="44.12018" lon="3.13892">
        <ele>724</ele>
        <time>2020-10-03T10:37:09.000Z</time>
      </trkpt>
      <trkpt lat="44.12017" lon="3.13894">
        <ele>722.79998779297</ele>
        <time>2020-10-03T10:37:11.000Z</time>
      </trkpt>
      <trkpt lat="44.12015" lon="3.13894">
        <ele>722.20001220703</ele>
        <time>2020-10-03T10:37:13.000Z</time>
      </trkpt>
      <trkpt lat="44.12014" lon="3.13895">
        <ele>722</ele>
        <time>2020-10-03T10:37:15.000Z</time>
      </trkpt>
      <trkpt lat="44.12014" lon="3.13896">
        <ele>722</ele>
        <time>2020-10-03T10:37:17.000Z</time>
      </trkpt>
      <trkpt lat="44.12013" lon="3.13895">
        <ele>721.79998779297</ele>
        <time>2020-10-03T10:37:19.000Z</time>
      </trkpt>
      <trkpt lat="44.12013" lon="3.13896">
        <ele>721.59997558594</ele>
        <time>2020-10-03T10:37:20.000Z</time>
      </trkpt>
      <trkpt lat="44.12013" lon="3.13896">
        <ele>721.40002441406</ele>
        <time>2020-10-03T10:37:21.000Z</time>
      </trkpt>
      <trkpt lat="44.12013" lon="3.13897">
        <ele>721.20001220703</ele>
        <time>2020-10-03T10:37:23.000Z</time>
      </trkpt>
      <trkpt lat="44.12013" lon="3.13897">
        <ele>721</ele>
        <time>2020-10-03T10:37:25.000Z</time>
      </trkpt>
      <trkpt lat="44.12012" lon="3.13899">
        <ele>721</ele>
        <time>2020-10-03T10:37:27.000Z</time>
      </trkpt>
      <trkpt lat="44.12012" lon="3.13899">
        <ele>721</ele>
        <time>2020-10-03T10:37:29.000Z</time>
      </trkpt>
      <trkpt lat="44.12012" lon="3.13899">
        <ele>720.79998779297</ele>
        <time>2020-10-03T10:37:31.000Z</time>
      </trkpt>
      <trkpt lat="44.12012" lon="3.139">
        <ele>720.59997558594</ele>
        <time>2020-10-03T10:37:33.000Z</time>
      </trkpt>
      <trkpt lat="44.12011" lon="3.139">
        <ele>720.59997558594</ele>
        <time>2020-10-03T10:37:35.000Z</time>
      </trkpt>
      <trkpt lat="44.12011" lon="3.13901">
        <ele>720.79998779297</ele>
        <time>2020-10-03T10:37:37.000Z</time>
      </trkpt>
      <trkpt lat="44.12011" lon="3.139">
        <ele>720.79998779297</ele>
        <time>2020-10-03T10:37:39.000Z</time>
      </trkpt>
      <trkpt lat="44.1201" lon="3.139">
        <ele>720.79998779297</ele>
        <time>2020-10-03T10:37:41.000Z</time>
      </trkpt>
      <trkpt lat="44.1201" lon="3.139">
        <ele>720.79998779297</ele>
        <time>2020-10-03T10:37:42.000Z</time>
      </trkpt>
      <trkpt lat="44.12011" lon="3.13899">
        <ele>720.79998779297</ele>
        <time>2020-10-03T10:37:43.000Z</time>
      </trkpt>
      <trkpt lat="44.1201" lon="3.13894">
        <ele>720.79998779297</ele>
        <time>2020-10-03T10:37:45.000Z</time>
      </trkpt>
      <trkpt lat="44.12009" lon="3.13889">
        <ele>720.79998779297</ele>
        <time>2020-10-03T10:37:46.000Z</time>
      </trkpt>
      <trkpt lat="44.12008" lon="3.13884">
        <ele>720.79998779297</ele>
        <time>2020-10-03T10:37:47.000Z</time>
      </trkpt>
      <trkpt lat="44.12003" lon="3.13875">
        <ele>720.79998779297</ele>
        <time>2020-10-03T10:37:49.000Z</time>
      </trkpt>
      <trkpt lat="44.12" lon="3.13873">
        <ele>720.79998779297</ele>
        <time>2020-10-03T10:37:50.000Z</time>
      </trkpt>
      <trkpt lat="44.11999" lon="3.13873">
        <ele>720.79998779297</ele>
        <time>2020-10-03T10:37:51.000Z</time>
      </trkpt>
      <trkpt lat="44.11998" lon="3.13874">
        <ele>720.20001220703</ele>
        <time>2020-10-03T10:37:52.000Z</time>
      </trkpt>
      <trkpt lat="44.11997" lon="3.13876">
        <ele>719.40002441406</ele>
        <time>2020-10-03T10:37:53.000Z</time>
      </trkpt>
      <trkpt lat="44.11997" lon="3.13878">
        <ele>718.59997558594</ele>
        <time>2020-10-03T10:37:54.000Z</time>
      </trkpt>
      <trkpt lat="44.11996" lon="3.1388">
        <ele>717.40002441406</ele>
        <time>2020-10-03T10:37:55.000Z</time>
      </trkpt>
      <trkpt lat="44.11995" lon="3.13882">
        <ele>716.79998779297</ele>
        <time>2020-10-03T10:37:56.000Z</time>
      </trkpt>
      <trkpt lat="44.11994" lon="3.13885">
        <ele>716</ele>
        <time>2020-10-03T10:37:57.000Z</time>
      </trkpt>
      <trkpt lat="44.11991" lon="3.13888">
        <ele>714.59997558594</ele>
        <time>2020-10-03T10:37:59.000Z</time>
      </trkpt>
      <trkpt lat="44.1199" lon="3.13888">
        <ele>714.20001220703</ele>
        <time>2020-10-03T10:38:00.000Z</time>
      </trkpt>
      <trkpt lat="44.11989" lon="3.13888">
        <ele>713.59997558594</ele>
        <time>2020-10-03T10:38:01.000Z</time>
      </trkpt>
      <trkpt lat="44.11988" lon="3.13888">
        <ele>713.20001220703</ele>
        <time>2020-10-03T10:38:02.000Z</time>
      </trkpt>
      <trkpt lat="44.11988" lon="3.13889">
        <ele>713</ele>
        <time>2020-10-03T10:38:03.000Z</time>
      </trkpt>
      <trkpt lat="44.11988" lon="3.13888">
        <ele>712</ele>
        <time>2020-10-03T10:38:05.000Z</time>
      </trkpt>
      <trkpt lat="44.11989" lon="3.13885">
        <ele>711.40002441406</ele>
        <time>2020-10-03T10:38:06.000Z</time>
      </trkpt>
      <trkpt lat="44.11989" lon="3.13884">
        <ele>710.59997558594</ele>
        <time>2020-10-03T10:38:07.000Z</time>
      </trkpt>
      <trkpt lat="44.11988" lon="3.13881">
        <ele>709.59997558594</ele>
        <time>2020-10-03T10:38:08.000Z</time>
      </trkpt>
      <trkpt lat="44.11986" lon="3.1388">
        <ele>708.59997558594</ele>
        <time>2020-10-03T10:38:09.000Z</time>
      </trkpt>
      <trkpt lat="44.11983" lon="3.13881">
        <ele>708</ele>
        <time>2020-10-03T10:38:11.000Z</time>
      </trkpt>
      <trkpt lat="44.11981" lon="3.13884">
        <ele>707.79998779297</ele>
        <time>2020-10-03T10:38:13.000Z</time>
      </trkpt>
      <trkpt lat="44.1198" lon="3.13885">
        <ele>707.40002441406</ele>
        <time>2020-10-03T10:38:14.000Z</time>
      </trkpt>
      <trkpt lat="44.11979" lon="3.13885">
        <ele>707.20001220703</ele>
        <time>2020-10-03T10:38:15.000Z</time>
      </trkpt>
      <trkpt lat="44.1198" lon="3.13884">
        <ele>706.20001220703</ele>
        <time>2020-10-03T10:38:16.000Z</time>
      </trkpt>
      <trkpt lat="44.11979" lon="3.13882">
        <ele>705.59997558594</ele>
        <time>2020-10-03T10:38:17.000Z</time>
      </trkpt>
      <trkpt lat="44.11978" lon="3.1388">
        <ele>705</ele>
        <time>2020-10-03T10:38:18.000Z</time>
      </trkpt>
      <trkpt lat="44.11976" lon="3.13877">
        <ele>704.59997558594</ele>
        <time>2020-10-03T10:38:19.000Z</time>
      </trkpt>
      <trkpt lat="44.11972" lon="3.13875">
        <ele>703.79998779297</ele>
        <time>2020-10-03T10:38:21.000Z</time>
      </trkpt>
      <trkpt lat="44.11972" lon="3.13876">
        <ele>703</ele>
        <time>2020-10-03T10:38:23.000Z</time>
      </trkpt>
      <trkpt lat="44.11972" lon="3.13879">
        <ele>702.59997558594</ele>
        <time>2020-10-03T10:38:24.000Z</time>
      </trkpt>
      <trkpt lat="44.11971" lon="3.13881">
        <ele>702.20001220703</ele>
        <time>2020-10-03T10:38:25.000Z</time>
      </trkpt>
      <trkpt lat="44.11972" lon="3.13884">
        <ele>701.40002441406</ele>
        <time>2020-10-03T10:38:27.000Z</time>
      </trkpt>
      <trkpt lat="44.11972" lon="3.13884">
        <ele>700.79998779297</ele>
        <time>2020-10-03T10:38:28.000Z</time>
      </trkpt>
      <trkpt lat="44.11972" lon="3.13884">
        <ele>700.20001220703</ele>
        <time>2020-10-03T10:38:29.000Z</time>
      </trkpt>
      <trkpt lat="44.11971" lon="3.13887">
        <ele>699.59997558594</ele>
        <time>2020-10-03T10:38:31.000Z</time>
      </trkpt>
      <trkpt lat="44.11969" lon="3.1389">
        <ele>699.20001220703</ele>
        <time>2020-10-03T10:38:32.000Z</time>
      </trkpt>
      <trkpt lat="44.11968" lon="3.13893">
        <ele>698.79998779297</ele>
        <time>2020-10-03T10:38:33.000Z</time>
      </trkpt>
      <trkpt lat="44.11961" lon="3.139">
        <ele>697.79998779297</ele>
        <time>2020-10-03T10:38:35.000Z</time>
      </trkpt>
      <trkpt lat="44.11954" lon="3.13903">
        <ele>697</ele>
        <time>2020-10-03T10:38:37.000Z</time>
      </trkpt>
      <trkpt lat="44.11953" lon="3.13903">
        <ele>695.79998779297</ele>
        <time>2020-10-03T10:38:38.000Z</time>
      </trkpt>
      <trkpt lat="44.11951" lon="3.13904">
        <ele>695.40002441406</ele>
        <time>2020-10-03T10:38:39.000Z</time>
      </trkpt>
      <trkpt lat="44.11945" lon="3.13908">
        <ele>694.20001220703</ele>
        <time>2020-10-03T10:38:41.000Z</time>
      </trkpt>
      <trkpt lat="44.11938" lon="3.13912">
        <ele>692.59997558594</ele>
        <time>2020-10-03T10:38:43.000Z</time>
      </trkpt>
      <trkpt lat="44.11932" lon="3.13914">
        <ele>691</ele>
        <time>2020-10-03T10:38:45.000Z</time>
      </trkpt>
      <trkpt lat="44.11931" lon="3.13913">
        <ele>690.40002441406</ele>
        <time>2020-10-03T10:38:46.000Z</time>
      </trkpt>
      <trkpt lat="44.11931" lon="3.13912">
        <ele>689.79998779297</ele>
        <time>2020-10-03T10:38:47.000Z</time>
      </trkpt>
      <trkpt lat="44.11932" lon="3.1391">
        <ele>688.20001220703</ele>
        <time>2020-10-03T10:38:49.000Z</time>
      </trkpt>
      <trkpt lat="44.11935" lon="3.13908">
        <ele>687.59997558594</ele>
        <time>2020-10-03T10:38:50.000Z</time>
      </trkpt>
      <trkpt lat="44.11938" lon="3.13906">
        <ele>686.79998779297</ele>
        <time>2020-10-03T10:38:51.000Z</time>
      </trkpt>
      <trkpt lat="44.11939" lon="3.13902">
        <ele>686</ele>
        <time>2020-10-03T10:38:52.000Z</time>
      </trkpt>
      <trkpt lat="44.1194" lon="3.13896">
        <ele>684.59997558594</ele>
        <time>2020-10-03T10:38:53.000Z</time>
      </trkpt>
      <trkpt lat="44.11941" lon="3.13892">
        <ele>683.40002441406</ele>
        <time>2020-10-03T10:38:54.000Z</time>
      </trkpt>
      <trkpt lat="44.11943" lon="3.13887">
        <ele>682.79998779297</ele>
        <time>2020-10-03T10:38:55.000Z</time>
      </trkpt>
      <trkpt lat="44.11943" lon="3.13884">
        <ele>682.40002441406</ele>
        <time>2020-10-03T10:38:56.000Z</time>
      </trkpt>
      <trkpt lat="44.11944" lon="3.13882">
        <ele>682</ele>
        <time>2020-10-03T10:38:57.000Z</time>
      </trkpt>
      <trkpt lat="44.11944" lon="3.13882">
        <ele>681.59997558594</ele>
        <time>2020-10-03T10:38:58.000Z</time>
      </trkpt>
      <trkpt lat="44.11943" lon="3.13883">
        <ele>681.20001220703</ele>
        <time>2020-10-03T10:38:59.000Z</time>
      </trkpt>
      <trkpt lat="44.11938" lon="3.13884">
        <ele>680</ele>
        <time>2020-10-03T10:39:01.000Z</time>
      </trkpt>
      <trkpt lat="44.11936" lon="3.13885">
        <ele>678.79998779297</ele>
        <time>2020-10-03T10:39:02.000Z</time>
      </trkpt>
      <trkpt lat="44.11934" lon="3.13888">
        <ele>678</ele>
        <time>2020-10-03T10:39:03.000Z</time>
      </trkpt>
      <trkpt lat="44.11932" lon="3.13889">
        <ele>677</ele>
        <time>2020-10-03T10:39:04.000Z</time>
      </trkpt>
      <trkpt lat="44.11931" lon="3.13889">
        <ele>676.20001220703</ele>
        <time>2020-10-03T10:39:05.000Z</time>
      </trkpt>
      <trkpt lat="44.11931" lon="3.13888">
        <ele>675.79998779297</ele>
        <time>2020-10-03T10:39:06.000Z</time>
      </trkpt>
      <trkpt lat="44.11931" lon="3.13888">
        <ele>675</ele>
        <time>2020-10-03T10:39:07.000Z</time>
      </trkpt>
      <trkpt lat="44.11931" lon="3.13886">
        <ele>674.40002441406</ele>
        <time>2020-10-03T10:39:08.000Z</time>
      </trkpt>
      <trkpt lat="44.1193" lon="3.13885">
        <ele>673.59997558594</ele>
        <time>2020-10-03T10:39:09.000Z</time>
      </trkpt>
      <trkpt lat="44.11929" lon="3.13883">
        <ele>672.79998779297</ele>
        <time>2020-10-03T10:39:10.000Z</time>
      </trkpt>
      <trkpt lat="44.11928" lon="3.13882">
        <ele>672</ele>
        <time>2020-10-03T10:39:11.000Z</time>
      </trkpt>
      <trkpt lat="44.11927" lon="3.13881">
        <ele>671.20001220703</ele>
        <time>2020-10-03T10:39:12.000Z</time>
      </trkpt>
      <trkpt lat="44.11926" lon="3.13881">
        <ele>670.59997558594</ele>
        <time>2020-10-03T10:39:13.000Z</time>
      </trkpt>
      <trkpt lat="44.11925" lon="3.13879">
        <ele>670</ele>
        <time>2020-10-03T10:39:14.000Z</time>
      </trkpt>
      <trkpt lat="44.11924" lon="3.13878">
        <ele>669.79998779297</ele>
        <time>2020-10-03T10:39:15.000Z</time>
      </trkpt>
      <trkpt lat="44.11923" lon="3.13878">
        <ele>669.20001220703</ele>
        <time>2020-10-03T10:39:16.000Z</time>
      </trkpt>
      <trkpt lat="44.11921" lon="3.13878">
        <ele>668.79998779297</ele>
        <time>2020-10-03T10:39:17.000Z</time>
      </trkpt>
      <trkpt lat="44.11916" lon="3.13877">
        <ele>667.59997558594</ele>
        <time>2020-10-03T10:39:19.000Z</time>
      </trkpt>
      <trkpt lat="44.11908" lon="3.1388">
        <ele>666.59997558594</ele>
        <time>2020-10-03T10:39:21.000Z</time>
      </trkpt>
      <trkpt lat="44.119" lon="3.13883">
        <ele>665.40002441406</ele>
        <time>2020-10-03T10:39:23.000Z</time>
      </trkpt>
      <trkpt lat="44.11899" lon="3.13883">
        <ele>664.79998779297</ele>
        <time>2020-10-03T10:39:24.000Z</time>
      </trkpt>
      <trkpt lat="44.11897" lon="3.13884">
        <ele>664.20001220703</ele>
        <time>2020-10-03T10:39:25.000Z</time>
      </trkpt>
      <trkpt lat="44.11896" lon="3.13882">
        <ele>662.59997558594</ele>
        <time>2020-10-03T10:39:27.000Z</time>
      </trkpt>
      <trkpt lat="44.11897" lon="3.13874">
        <ele>660.59997558594</ele>
        <time>2020-10-03T10:39:29.000Z</time>
      </trkpt>
      <trkpt lat="44.11897" lon="3.13862">
        <ele>658.59997558594</ele>
        <time>2020-10-03T10:39:31.000Z</time>
      </trkpt>
      <trkpt lat="44.11895" lon="3.13851">
        <ele>656.79998779297</ele>
        <time>2020-10-03T10:39:33.000Z</time>
      </trkpt>
      <trkpt lat="44.11894" lon="3.13849">
        <ele>656</ele>
        <time>2020-10-03T10:39:34.000Z</time>
      </trkpt>
      <trkpt lat="44.11892" lon="3.13848">
        <ele>655.20001220703</ele>
        <time>2020-10-03T10:39:35.000Z</time>
      </trkpt>
      <trkpt lat="44.1189" lon="3.13847">
        <ele>654</ele>
        <time>2020-10-03T10:39:36.000Z</time>
      </trkpt>
      <trkpt lat="44.11889" lon="3.13845">
        <ele>653.40002441406</ele>
        <time>2020-10-03T10:39:37.000Z</time>
      </trkpt>
      <trkpt lat="44.11888" lon="3.13843">
        <ele>652.59997558594</ele>
        <time>2020-10-03T10:39:38.000Z</time>
      </trkpt>
      <trkpt lat="44.11888" lon="3.1384">
        <ele>651.79998779297</ele>
        <time>2020-10-03T10:39:39.000Z</time>
      </trkpt>
      <trkpt lat="44.11887" lon="3.13836">
        <ele>650.59997558594</ele>
        <time>2020-10-03T10:39:40.000Z</time>
      </trkpt>
      <trkpt lat="44.11885" lon="3.13835">
        <ele>649.79998779297</ele>
        <time>2020-10-03T10:39:41.000Z</time>
      </trkpt>
      <trkpt lat="44.11885" lon="3.13837">
        <ele>649.40002441406</ele>
        <time>2020-10-03T10:39:42.000Z</time>
      </trkpt>
      <trkpt lat="44.11884" lon="3.13839">
        <ele>649</ele>
        <time>2020-10-03T10:39:43.000Z</time>
      </trkpt>
      <trkpt lat="44.11884" lon="3.13841">
        <ele>648.20001220703</ele>
        <time>2020-10-03T10:39:44.000Z</time>
      </trkpt>
      <trkpt lat="44.11884" lon="3.13842">
        <ele>647.79998779297</ele>
        <time>2020-10-03T10:39:45.000Z</time>
      </trkpt>
      <trkpt lat="44.11883" lon="3.13841">
        <ele>647</ele>
        <time>2020-10-03T10:39:47.000Z</time>
      </trkpt>
      <trkpt lat="44.11883" lon="3.13841">
        <ele>645.59997558594</ele>
        <time>2020-10-03T10:39:49.000Z</time>
      </trkpt>
      <trkpt lat="44.11883" lon="3.1384">
        <ele>644.40002441406</ele>
        <time>2020-10-03T10:39:51.000Z</time>
      </trkpt>
      <trkpt lat="44.11882" lon="3.13839">
        <ele>643.20001220703</ele>
        <time>2020-10-03T10:39:53.000Z</time>
      </trkpt>
      <trkpt lat="44.11882" lon="3.13838">
        <ele>642.40002441406</ele>
        <time>2020-10-03T10:39:55.000Z</time>
      </trkpt>
      <trkpt lat="44.11881" lon="3.13837">
        <ele>642.20001220703</ele>
        <time>2020-10-03T10:39:56.000Z</time>
      </trkpt>
      <trkpt lat="44.11881" lon="3.13838">
        <ele>642</ele>
        <time>2020-10-03T10:39:57.000Z</time>
      </trkpt>
      <trkpt lat="44.11878" lon="3.13843">
        <ele>641.79998779297</ele>
        <time>2020-10-03T10:39:59.000Z</time>
      </trkpt>
      <trkpt lat="44.11875" lon="3.13848">
        <ele>641.59997558594</ele>
        <time>2020-10-03T10:40:01.000Z</time>
      </trkpt>
      <trkpt lat="44.11872" lon="3.13851">
        <ele>641.59997558594</ele>
        <time>2020-10-03T10:40:03.000Z</time>
      </trkpt>
      <trkpt lat="44.11871" lon="3.13849">
        <ele>641.20001220703</ele>
        <time>2020-10-03T10:40:05.000Z</time>
      </trkpt>
      <trkpt lat="44.11869" lon="3.13845">
        <ele>641</ele>
        <time>2020-10-03T10:40:06.000Z</time>
      </trkpt>
      <trkpt lat="44.11867" lon="3.13843">
        <ele>640.40002441406</ele>
        <time>2020-10-03T10:40:07.000Z</time>
      </trkpt>
      <trkpt lat="44.11866" lon="3.13842">
        <ele>639.79998779297</ele>
        <time>2020-10-03T10:40:08.000Z</time>
      </trkpt>
      <trkpt lat="44.11864" lon="3.13841">
        <ele>639</ele>
        <time>2020-10-03T10:40:09.000Z</time>
      </trkpt>
      <trkpt lat="44.11863" lon="3.13839">
        <ele>638.20001220703</ele>
        <time>2020-10-03T10:40:10.000Z</time>
      </trkpt>
      <trkpt lat="44.11862" lon="3.13835">
        <ele>637.40002441406</ele>
        <time>2020-10-03T10:40:11.000Z</time>
      </trkpt>
      <trkpt lat="44.1186" lon="3.13832">
        <ele>636.59997558594</ele>
        <time>2020-10-03T10:40:12.000Z</time>
      </trkpt>
      <trkpt lat="44.11859" lon="3.13827">
        <ele>636</ele>
        <time>2020-10-03T10:40:13.000Z</time>
      </trkpt>
      <trkpt lat="44.11857" lon="3.13823">
        <ele>635.59997558594</ele>
        <time>2020-10-03T10:40:14.000Z</time>
      </trkpt>
      <trkpt lat="44.11856" lon="3.1382">
        <ele>635.20001220703</ele>
        <time>2020-10-03T10:40:15.000Z</time>
      </trkpt>
      <trkpt lat="44.11852" lon="3.13815">
        <ele>634.20001220703</ele>
        <time>2020-10-03T10:40:17.000Z</time>
      </trkpt>
      <trkpt lat="44.11851" lon="3.13814">
        <ele>633.79998779297</ele>
        <time>2020-10-03T10:40:18.000Z</time>
      </trkpt>
      <trkpt lat="44.11849" lon="3.13812">
        <ele>633.20001220703</ele>
        <time>2020-10-03T10:40:19.000Z</time>
      </trkpt>
      <trkpt lat="44.11842" lon="3.1381">
        <ele>632</ele>
        <time>2020-10-03T10:40:21.000Z</time>
      </trkpt>
      <trkpt lat="44.11837" lon="3.13809">
        <ele>631.59997558594</ele>
        <time>2020-10-03T10:40:22.000Z</time>
      </trkpt>
      <trkpt lat="44.11832" lon="3.13808">
        <ele>631.40002441406</ele>
        <time>2020-10-03T10:40:23.000Z</time>
      </trkpt>
      <trkpt lat="44.11821" lon="3.13805">
        <ele>631.20001220703</ele>
        <time>2020-10-03T10:40:25.000Z</time>
      </trkpt>
      <trkpt lat="44.1181" lon="3.13802">
        <ele>630.79998779297</ele>
        <time>2020-10-03T10:40:27.000Z</time>
      </trkpt>
      <trkpt lat="44.11806" lon="3.13801">
        <ele>630.79998779297</ele>
        <time>2020-10-03T10:40:28.000Z</time>
      </trkpt>
      <trkpt lat="44.11803" lon="3.13801">
        <ele>630.79998779297</ele>
        <time>2020-10-03T10:40:29.000Z</time>
      </trkpt>
      <trkpt lat="44.11796" lon="3.13798">
        <ele>629.79998779297</ele>
        <time>2020-10-03T10:40:31.000Z</time>
      </trkpt>
      <trkpt lat="44.11791" lon="3.13798">
        <ele>629.20001220703</ele>
        <time>2020-10-03T10:40:32.000Z</time>
      </trkpt>
      <trkpt lat="44.11786" lon="3.13797">
        <ele>628.59997558594</ele>
        <time>2020-10-03T10:40:33.000Z</time>
      </trkpt>
      <trkpt lat="44.11781" lon="3.13795">
        <ele>627</ele>
        <time>2020-10-03T10:40:34.000Z</time>
      </trkpt>
      <trkpt lat="44.11777" lon="3.13794">
        <ele>625.79998779297</ele>
        <time>2020-10-03T10:40:35.000Z</time>
      </trkpt>
      <trkpt lat="44.11772" lon="3.13792">
        <ele>624.59997558594</ele>
        <time>2020-10-03T10:40:36.000Z</time>
      </trkpt>
      <trkpt lat="44.11768" lon="3.13793">
        <ele>623.20001220703</ele>
        <time>2020-10-03T10:40:37.000Z</time>
      </trkpt>
      <trkpt lat="44.11766" lon="3.13793">
        <ele>622</ele>
        <time>2020-10-03T10:40:38.000Z</time>
      </trkpt>
      <trkpt lat="44.11764" lon="3.13792">
        <ele>621</ele>
        <time>2020-10-03T10:40:39.000Z</time>
      </trkpt>
      <trkpt lat="44.11763" lon="3.13792">
        <ele>619.59997558594</ele>
        <time>2020-10-03T10:40:40.000Z</time>
      </trkpt>
      <trkpt lat="44.11761" lon="3.13793">
        <ele>618</ele>
        <time>2020-10-03T10:40:41.000Z</time>
      </trkpt>
      <trkpt lat="44.11758" lon="3.13793">
        <ele>616.79998779297</ele>
        <time>2020-10-03T10:40:42.000Z</time>
      </trkpt>
      <trkpt lat="44.11755" lon="3.13792">
        <ele>615.59997558594</ele>
        <time>2020-10-03T10:40:43.000Z</time>
      </trkpt>
      <trkpt lat="44.11751" lon="3.1379">
        <ele>614.40002441406</ele>
        <time>2020-10-03T10:40:44.000Z</time>
      </trkpt>
      <trkpt lat="44.11746" lon="3.13788">
        <ele>613</ele>
        <time>2020-10-03T10:40:45.000Z</time>
      </trkpt>
      <trkpt lat="44.11741" lon="3.13787">
        <ele>612</ele>
        <time>2020-10-03T10:40:46.000Z</time>
      </trkpt>
      <trkpt lat="44.11737" lon="3.13787">
        <ele>611</ele>
        <time>2020-10-03T10:40:47.000Z</time>
      </trkpt>
      <trkpt lat="44.11734" lon="3.13786">
        <ele>610.20001220703</ele>
        <time>2020-10-03T10:40:48.000Z</time>
      </trkpt>
      <trkpt lat="44.11732" lon="3.13786">
        <ele>609.59997558594</ele>
        <time>2020-10-03T10:40:49.000Z</time>
      </trkpt>
      <trkpt lat="44.11729" lon="3.13787">
        <ele>608.59997558594</ele>
        <time>2020-10-03T10:40:50.000Z</time>
      </trkpt>
      <trkpt lat="44.11723" lon="3.1379">
        <ele>607.79998779297</ele>
        <time>2020-10-03T10:40:51.000Z</time>
      </trkpt>
      <trkpt lat="44.11717" lon="3.13793">
        <ele>607.20001220703</ele>
        <time>2020-10-03T10:40:52.000Z</time>
      </trkpt>
      <trkpt lat="44.11711" lon="3.13795">
        <ele>606.59997558594</ele>
        <time>2020-10-03T10:40:53.000Z</time>
      </trkpt>
      <trkpt lat="44.11706" lon="3.13798">
        <ele>606</ele>
        <time>2020-10-03T10:40:54.000Z</time>
      </trkpt>
      <trkpt lat="44.11702" lon="3.13798">
        <ele>605.20001220703</ele>
        <time>2020-10-03T10:40:55.000Z</time>
      </trkpt>
      <trkpt lat="44.117" lon="3.13796">
        <ele>604.20001220703</ele>
        <time>2020-10-03T10:40:56.000Z</time>
      </trkpt>
      <trkpt lat="44.11697" lon="3.13795">
        <ele>603</ele>
        <time>2020-10-03T10:40:57.000Z</time>
      </trkpt>
      <trkpt lat="44.11695" lon="3.13793">
        <ele>602</ele>
        <time>2020-10-03T10:40:58.000Z</time>
      </trkpt>
      <trkpt lat="44.11693" lon="3.13793">
        <ele>601</ele>
        <time>2020-10-03T10:40:59.000Z</time>
      </trkpt>
      <trkpt lat="44.11691" lon="3.13791">
        <ele>600</ele>
        <time>2020-10-03T10:41:00.000Z</time>
      </trkpt>
      <trkpt lat="44.11688" lon="3.13791">
        <ele>598.40002441406</ele>
        <time>2020-10-03T10:41:01.000Z</time>
      </trkpt>
      <trkpt lat="44.11684" lon="3.1379">
        <ele>596.79998779297</ele>
        <time>2020-10-03T10:41:02.000Z</time>
      </trkpt>
      <trkpt lat="44.1168" lon="3.13789">
        <ele>594.59997558594</ele>
        <time>2020-10-03T10:41:03.000Z</time>
      </trkpt>
      <trkpt lat="44.11671" lon="3.13787">
        <ele>593.40002441406</ele>
        <time>2020-10-03T10:41:05.000Z</time>
      </trkpt>
      <trkpt lat="44.11661" lon="3.13783">
        <ele>593.20001220703</ele>
        <time>2020-10-03T10:41:07.000Z</time>
      </trkpt>
      <trkpt lat="44.11652" lon="3.13778">
        <ele>592.40002441406</ele>
        <time>2020-10-03T10:41:09.000Z</time>
      </trkpt>
      <trkpt lat="44.11647" lon="3.13775">
        <ele>592</ele>
        <time>2020-10-03T10:41:10.000Z</time>
      </trkpt>
      <trkpt lat="44.11642" lon="3.13771">
        <ele>591.59997558594</ele>
        <time>2020-10-03T10:41:11.000Z</time>
      </trkpt>
      <trkpt lat="44.11639" lon="3.13769">
        <ele>591.20001220703</ele>
        <time>2020-10-03T10:41:12.000Z</time>
      </trkpt>
      <trkpt lat="44.11635" lon="3.13766">
        <ele>590.59997558594</ele>
        <time>2020-10-03T10:41:13.000Z</time>
      </trkpt>
      <trkpt lat="44.11632" lon="3.13763">
        <ele>589.79998779297</ele>
        <time>2020-10-03T10:41:14.000Z</time>
      </trkpt>
      <trkpt lat="44.11629" lon="3.13761">
        <ele>588.79998779297</ele>
        <time>2020-10-03T10:41:15.000Z</time>
      </trkpt>
      <trkpt lat="44.11627" lon="3.13761">
        <ele>588</ele>
        <time>2020-10-03T10:41:16.000Z</time>
      </trkpt>
      <trkpt lat="44.11626" lon="3.1376">
        <ele>587</ele>
        <time>2020-10-03T10:41:17.000Z</time>
      </trkpt>
      <trkpt lat="44.11625" lon="3.1376">
        <ele>585.79998779297</ele>
        <time>2020-10-03T10:41:18.000Z</time>
      </trkpt>
      <trkpt lat="44.11626" lon="3.1376">
        <ele>584.79998779297</ele>
        <time>2020-10-03T10:41:19.000Z</time>
      </trkpt>
      <trkpt lat="44.11626" lon="3.13761">
        <ele>583.59997558594</ele>
        <time>2020-10-03T10:41:20.000Z</time>
      </trkpt>
      <trkpt lat="44.11626" lon="3.13761">
        <ele>583</ele>
        <time>2020-10-03T10:41:21.000Z</time>
      </trkpt>
      <trkpt lat="44.11627" lon="3.13761">
        <ele>582.40002441406</ele>
        <time>2020-10-03T10:41:22.000Z</time>
      </trkpt>
      <trkpt lat="44.11627" lon="3.13761">
        <ele>582</ele>
        <time>2020-10-03T10:41:23.000Z</time>
      </trkpt>
      <trkpt lat="44.11627" lon="3.13761">
        <ele>581.40002441406</ele>
        <time>2020-10-03T10:41:24.000Z</time>
      </trkpt>
      <trkpt lat="44.11627" lon="3.13761">
        <ele>581.20001220703</ele>
        <time>2020-10-03T10:41:25.000Z</time>
      </trkpt>
      <trkpt lat="44.11627" lon="3.13761">
        <ele>580.79998779297</ele>
        <time>2020-10-03T10:41:26.000Z</time>
      </trkpt>
      <trkpt lat="44.11628" lon="3.13761">
        <ele>580.79998779297</ele>
        <time>2020-10-03T10:41:27.000Z</time>
      </trkpt>
      <trkpt lat="44.11628" lon="3.1376">
        <ele>580.59997558594</ele>
        <time>2020-10-03T10:41:29.000Z</time>
      </trkpt>
      <trkpt lat="44.11629" lon="3.1376">
        <ele>580.79998779297</ele>
        <time>2020-10-03T10:41:31.000Z</time>
      </trkpt>
      <trkpt lat="44.11629" lon="3.1376">
        <ele>580.59997558594</ele>
        <time>2020-10-03T10:41:33.000Z</time>
      </trkpt>
      <trkpt lat="44.11629" lon="3.1376">
        <ele>580.59997558594</ele>
        <time>2020-10-03T10:41:35.000Z</time>
      </trkpt>
      <trkpt lat="44.11628" lon="3.1376">
        <ele>580.40002441406</ele>
        <time>2020-10-03T10:41:36.000Z</time>
      </trkpt>
      <trkpt lat="44.11628" lon="3.1376">
        <ele>580.40002441406</ele>
        <time>2020-10-03T10:41:37.000Z</time>
      </trkpt>
      <trkpt lat="44.11627" lon="3.1376">
        <ele>580.40002441406</ele>
        <time>2020-10-03T10:41:39.000Z</time>
      </trkpt>
      <trkpt lat="44.11627" lon="3.13761">
        <ele>580.40002441406</ele>
        <time>2020-10-03T10:41:41.000Z</time>
      </trkpt>
      <trkpt lat="44.11626" lon="3.13761">
        <ele>580.40002441406</ele>
        <time>2020-10-03T10:41:43.000Z</time>
      </trkpt>
      <trkpt lat="44.11624" lon="3.13761">
        <ele>580.40002441406</ele>
        <time>2020-10-03T10:41:45.000Z</time>
      </trkpt>
      <trkpt lat="44.11624" lon="3.1376">
        <ele>580.40002441406</ele>
        <time>2020-10-03T10:41:47.000Z</time>
      </trkpt>
      <trkpt lat="44.11623" lon="3.13759">
        <ele>580.40002441406</ele>
        <time>2020-10-03T10:41:49.000Z</time>
      </trkpt>
      <trkpt lat="44.11623" lon="3.13759">
        <ele>580.59997558594</ele>
        <time>2020-10-03T10:41:51.000Z</time>
      </trkpt>
      <trkpt lat="44.11623" lon="3.13759">
        <ele>580.40002441406</ele>
        <time>2020-10-03T10:41:53.000Z</time>
      </trkpt>
      <trkpt lat="44.11623" lon="3.13759">
        <ele>580.40002441406</ele>
        <time>2020-10-03T10:41:55.000Z</time>
      </trkpt>
      <trkpt lat="44.11624" lon="3.13759">
        <ele>580.59997558594</ele>
        <time>2020-10-03T10:41:57.000Z</time>
      </trkpt>
      <trkpt lat="44.11624" lon="3.13759">
        <ele>580.59997558594</ele>
        <time>2020-10-03T10:41:59.000Z</time>
      </trkpt>
      <trkpt lat="44.11624" lon="3.13758">
        <ele>580.59997558594</ele>
        <time>2020-10-03T10:42:01.000Z</time>
      </trkpt>
      <trkpt lat="44.11624" lon="3.13758">
        <ele>580.59997558594</ele>
        <time>2020-10-03T10:42:03.000Z</time>
      </trkpt>
      <trkpt lat="44.11625" lon="3.13758">
        <ele>580.79998779297</ele>
        <time>2020-10-03T10:42:05.000Z</time>
      </trkpt>
      <trkpt lat="44.11625" lon="3.13758">
        <ele>580.79998779297</ele>
        <time>2020-10-03T10:42:07.000Z</time>
      </trkpt>
      <trkpt lat="44.11625" lon="3.13758">
        <ele>580.79998779297</ele>
        <time>2020-10-03T10:42:09.000Z</time>
      </trkpt>
      <trkpt lat="44.11625" lon="3.13757">
        <ele>580.79998779297</ele>
        <time>2020-10-03T10:42:11.000Z</time>
      </trkpt>
      <trkpt lat="44.11625" lon="3.13757">
        <ele>580.79998779297</ele>
        <time>2020-10-03T10:42:13.000Z</time>
      </trkpt>
      <trkpt lat="44.11625" lon="3.13757">
        <ele>580.79998779297</ele>
        <time>2020-10-03T10:42:15.000Z</time>
      </trkpt>
      <trkpt lat="44.11625" lon="3.13757">
        <ele>580.79998779297</ele>
        <time>2020-10-03T10:42:17.000Z</time>
      </trkpt>
      <trkpt lat="44.11625" lon="3.13756">
        <ele>580.79998779297</ele>
        <time>2020-10-03T10:42:19.000Z</time>
      </trkpt>
      <trkpt lat="44.11625" lon="3.13756">
        <ele>580.79998779297</ele>
        <time>2020-10-03T10:42:21.000Z</time>
      </trkpt>
      <trkpt lat="44.11625" lon="3.13755">
        <ele>580.79998779297</ele>
        <time>2020-10-03T10:42:22.000Z</time>
      </trkpt>
      <trkpt lat="44.11625" lon="3.13755">
        <ele>580.79998779297</ele>
        <time>2020-10-03T10:42:23.000Z</time>
      </trkpt>
      <trkpt lat="44.11625" lon="3.13755">
        <ele>580.79998779297</ele>
        <time>2020-10-03T10:42:25.000Z</time>
      </trkpt>
      <trkpt lat="44.11625" lon="3.13754">
        <ele>580.79998779297</ele>
        <time>2020-10-03T10:42:27.000Z</time>
      </trkpt>
      <trkpt lat="44.11625" lon="3.13754">
        <ele>580.79998779297</ele>
        <time>2020-10-03T10:42:29.000Z</time>
      </trkpt>
      <trkpt lat="44.11625" lon="3.13755">
        <ele>580.59997558594</ele>
        <time>2020-10-03T10:42:31.000Z</time>
      </trkpt>
      <trkpt lat="44.11625" lon="3.13755">
        <ele>580.79998779297</ele>
        <time>2020-10-03T10:42:33.000Z</time>
      </trkpt>
      <trkpt lat="44.11625" lon="3.13755">
        <ele>580.79998779297</ele>
        <time>2020-10-03T10:42:35.000Z</time>
      </trkpt>
      <trkpt lat="44.11625" lon="3.13755">
        <ele>580.79998779297</ele>
        <time>2020-10-03T10:42:37.000Z</time>
      </trkpt>
      <trkpt lat="44.11625" lon="3.13755">
        <ele>580.79998779297</ele>
        <time>2020-10-03T10:42:38.000Z</time>
      </trkpt>
      <trkpt lat="44.11625" lon="3.13755">
        <ele>580.79998779297</ele>
        <time>2020-10-03T10:42:39.000Z</time>
      </trkpt>
      <trkpt lat="44.11625" lon="3.13755">
        <ele>581</ele>
        <time>2020-10-03T10:42:41.000Z</time>
      </trkpt>
      <trkpt lat="44.11626" lon="3.13755">
        <ele>581</ele>
        <time>2020-10-03T10:42:43.000Z</time>
      </trkpt>
      <trkpt lat="44.11626" lon="3.13756">
        <ele>581</ele>
        <time>2020-10-03T10:42:45.000Z</time>
      </trkpt>
      <trkpt lat="44.11626" lon="3.13757">
        <ele>581</ele>
        <time>2020-10-03T10:42:47.000Z</time>
      </trkpt>
      <trkpt lat="44.11625" lon="3.13757">
        <ele>581</ele>
        <time>2020-10-03T10:42:49.000Z</time>
      </trkpt>
      <trkpt lat="44.11624" lon="3.13757">
        <ele>581</ele>
        <time>2020-10-03T10:42:51.000Z</time>
      </trkpt>
      <trkpt lat="44.11622" lon="3.13755">
        <ele>581</ele>
        <time>2020-10-03T10:42:52.000Z</time>
      </trkpt>
      <trkpt lat="44.11619" lon="3.13754">
        <ele>581</ele>
        <time>2020-10-03T10:42:53.000Z</time>
      </trkpt>
      <trkpt lat="44.11612" lon="3.13747">
        <ele>580.79998779297</ele>
        <time>2020-10-03T10:42:55.000Z</time>
      </trkpt>
      <trkpt lat="44.11605" lon="3.13736">
        <ele>580.79998779297</ele>
        <time>2020-10-03T10:42:57.000Z</time>
      </trkpt>
      <trkpt lat="44.11597" lon="3.13725">
        <ele>580.79998779297</ele>
        <time>2020-10-03T10:42:59.000Z</time>
      </trkpt>
      <trkpt lat="44.11594" lon="3.1372">
        <ele>580.40002441406</ele>
        <time>2020-10-03T10:43:00.000Z</time>
      </trkpt>
      <trkpt lat="44.1159" lon="3.13717">
        <ele>580</ele>
        <time>2020-10-03T10:43:01.000Z</time>
      </trkpt>
      <trkpt lat="44.11587" lon="3.13717">
        <ele>579.20001220703</ele>
        <time>2020-10-03T10:43:02.000Z</time>
      </trkpt>
      <trkpt lat="44.11583" lon="3.13719">
        <ele>578.59997558594</ele>
        <time>2020-10-03T10:43:03.000Z</time>
      </trkpt>
      <trkpt lat="44.11581" lon="3.13721">
        <ele>578.20001220703</ele>
        <time>2020-10-03T10:43:04.000Z</time>
      </trkpt>
      <trkpt lat="44.11578" lon="3.13724">
        <ele>577.79998779297</ele>
        <time>2020-10-03T10:43:05.000Z</time>
      </trkpt>
      <trkpt lat="44.11575" lon="3.13727">
        <ele>577.40002441406</ele>
        <time>2020-10-03T10:43:06.000Z</time>
      </trkpt>
      <trkpt lat="44.1157" lon="3.1373">
        <ele>576.59997558594</ele>
        <time>2020-10-03T10:43:07.000Z</time>
      </trkpt>
      <trkpt lat="44.11564" lon="3.13732">
        <ele>576.20001220703</ele>
        <time>2020-10-03T10:43:08.000Z</time>
      </trkpt>
      <trkpt lat="44.11559" lon="3.13735">
        <ele>575.40002441406</ele>
        <time>2020-10-03T10:43:09.000Z</time>
      </trkpt>
      <trkpt lat="44.11554" lon="3.13739">
        <ele>574.40002441406</ele>
        <time>2020-10-03T10:43:10.000Z</time>
      </trkpt>
      <trkpt lat="44.11549" lon="3.13743">
        <ele>573.40002441406</ele>
        <time>2020-10-03T10:43:11.000Z</time>
      </trkpt>
      <trkpt lat="44.11544" lon="3.13749">
        <ele>572.20001220703</ele>
        <time>2020-10-03T10:43:12.000Z</time>
      </trkpt>
      <trkpt lat="44.1154" lon="3.13758">
        <ele>571.20001220703</ele>
        <time>2020-10-03T10:43:13.000Z</time>
      </trkpt>
      <trkpt lat="44.11537" lon="3.13769">
        <ele>570</ele>
        <time>2020-10-03T10:43:14.000Z</time>
      </trkpt>
      <trkpt lat="44.11534" lon="3.13781">
        <ele>568.59997558594</ele>
        <time>2020-10-03T10:43:15.000Z</time>
      </trkpt>
      <trkpt lat="44.11534" lon="3.13793">
        <ele>567</ele>
        <time>2020-10-03T10:43:16.000Z</time>
      </trkpt>
      <trkpt lat="44.11532" lon="3.13804">
        <ele>565.40002441406</ele>
        <time>2020-10-03T10:43:17.000Z</time>
      </trkpt>
      <trkpt lat="44.11529" lon="3.13812">
        <ele>563.59997558594</ele>
        <time>2020-10-03T10:43:18.000Z</time>
      </trkpt>
      <trkpt lat="44.11525" lon="3.13817">
        <ele>562.20001220703</ele>
        <time>2020-10-03T10:43:19.000Z</time>
      </trkpt>
      <trkpt lat="44.1152" lon="3.13821">
        <ele>560.59997558594</ele>
        <time>2020-10-03T10:43:20.000Z</time>
      </trkpt>
      <trkpt lat="44.11513" lon="3.13825">
        <ele>559</ele>
        <time>2020-10-03T10:43:21.000Z</time>
      </trkpt>
      <trkpt lat="44.11505" lon="3.1383">
        <ele>557.79998779297</ele>
        <time>2020-10-03T10:43:22.000Z</time>
      </trkpt>
      <trkpt lat="44.11499" lon="3.13835">
        <ele>556.40002441406</ele>
        <time>2020-10-03T10:43:23.000Z</time>
      </trkpt>
      <trkpt lat="44.11494" lon="3.13841">
        <ele>554.79998779297</ele>
        <time>2020-10-03T10:43:24.000Z</time>
      </trkpt>
      <trkpt lat="44.11494" lon="3.13845">
        <ele>553.59997558594</ele>
        <time>2020-10-03T10:43:25.000Z</time>
      </trkpt>
      <trkpt lat="44.11494" lon="3.13848">
        <ele>552.59997558594</ele>
        <time>2020-10-03T10:43:26.000Z</time>
      </trkpt>
      <trkpt lat="44.11497" lon="3.13851">
        <ele>552</ele>
        <time>2020-10-03T10:43:27.000Z</time>
      </trkpt>
      <trkpt lat="44.11502" lon="3.13851">
        <ele>551</ele>
        <time>2020-10-03T10:43:28.000Z</time>
      </trkpt>
      <trkpt lat="44.11508" lon="3.13851">
        <ele>548.59997558594</ele>
        <time>2020-10-03T10:43:29.000Z</time>
      </trkpt>
      <trkpt lat="44.11519" lon="3.13851">
        <ele>547.40002441406</ele>
        <time>2020-10-03T10:43:31.000Z</time>
      </trkpt>
      <trkpt lat="44.11523" lon="3.13852">
        <ele>546.79998779297</ele>
        <time>2020-10-03T10:43:32.000Z</time>
      </trkpt>
      <trkpt lat="44.11526" lon="3.13855">
        <ele>545.79998779297</ele>
        <time>2020-10-03T10:43:33.000Z</time>
      </trkpt>
      <trkpt lat="44.11525" lon="3.13867">
        <ele>544</ele>
        <time>2020-10-03T10:43:35.000Z</time>
      </trkpt>
      <trkpt lat="44.1152" lon="3.13883">
        <ele>542.40002441406</ele>
        <time>2020-10-03T10:43:37.000Z</time>
      </trkpt>
      <trkpt lat="44.11517" lon="3.13893">
        <ele>541.59997558594</ele>
        <time>2020-10-03T10:43:38.000Z</time>
      </trkpt>
      <trkpt lat="44.11514" lon="3.13903">
        <ele>541</ele>
        <time>2020-10-03T10:43:39.000Z</time>
      </trkpt>
      <trkpt lat="44.11506" lon="3.13927">
        <ele>539.20001220703</ele>
        <time>2020-10-03T10:43:41.000Z</time>
      </trkpt>
      <trkpt lat="44.11501" lon="3.13938">
        <ele>538.20001220703</ele>
        <time>2020-10-03T10:43:42.000Z</time>
      </trkpt>
      <trkpt lat="44.11495" lon="3.13948">
        <ele>537.59997558594</ele>
        <time>2020-10-03T10:43:43.000Z</time>
      </trkpt>
      <trkpt lat="44.11486" lon="3.13967">
        <ele>536.20001220703</ele>
        <time>2020-10-03T10:43:45.000Z</time>
      </trkpt>
      <trkpt lat="44.11482" lon="3.13978">
        <ele>535.20001220703</ele>
        <time>2020-10-03T10:43:46.000Z</time>
      </trkpt>
      <trkpt lat="44.11478" lon="3.13987">
        <ele>534</ele>
        <time>2020-10-03T10:43:47.000Z</time>
      </trkpt>
      <trkpt lat="44.11473" lon="3.13995">
        <ele>532.20001220703</ele>
        <time>2020-10-03T10:43:48.000Z</time>
      </trkpt>
      <trkpt lat="44.11466" lon="3.13999">
        <ele>530.20001220703</ele>
        <time>2020-10-03T10:43:49.000Z</time>
      </trkpt>
      <trkpt lat="44.11458" lon="3.14">
        <ele>528.59997558594</ele>
        <time>2020-10-03T10:43:50.000Z</time>
      </trkpt>
      <trkpt lat="44.1145" lon="3.14">
        <ele>526.79998779297</ele>
        <time>2020-10-03T10:43:51.000Z</time>
      </trkpt>
      <trkpt lat="44.11441" lon="3.13999">
        <ele>525.20001220703</ele>
        <time>2020-10-03T10:43:52.000Z</time>
      </trkpt>
      <trkpt lat="44.11432" lon="3.13999">
        <ele>523.40002441406</ele>
        <time>2020-10-03T10:43:53.000Z</time>
      </trkpt>
      <trkpt lat="44.11424" lon="3.13999">
        <ele>522</ele>
        <time>2020-10-03T10:43:54.000Z</time>
      </trkpt>
      <trkpt lat="44.11418" lon="3.14001">
        <ele>520.20001220703</ele>
        <time>2020-10-03T10:43:55.000Z</time>
      </trkpt>
      <trkpt lat="44.11414" lon="3.14005">
        <ele>518.59997558594</ele>
        <time>2020-10-03T10:43:56.000Z</time>
      </trkpt>
      <trkpt lat="44.11413" lon="3.14009">
        <ele>517</ele>
        <time>2020-10-03T10:43:57.000Z</time>
      </trkpt>
      <trkpt lat="44.11415" lon="3.14015">
        <ele>514</ele>
        <time>2020-10-03T10:43:58.000Z</time>
      </trkpt>
      <trkpt lat="44.11417" lon="3.14022">
        <ele>512.79998779297</ele>
        <time>2020-10-03T10:43:59.000Z</time>
      </trkpt>
      <trkpt lat="44.11419" lon="3.1403">
        <ele>511.60000610352</ele>
        <time>2020-10-03T10:44:00.000Z</time>
      </trkpt>
      <trkpt lat="44.11419" lon="3.14038">
        <ele>510.60000610352</ele>
        <time>2020-10-03T10:44:01.000Z</time>
      </trkpt>
      <trkpt lat="44.11417" lon="3.14048">
        <ele>509.79998779297</ele>
        <time>2020-10-03T10:44:02.000Z</time>
      </trkpt>
      <trkpt lat="44.11414" lon="3.14057">
        <ele>509.20001220703</ele>
        <time>2020-10-03T10:44:03.000Z</time>
      </trkpt>
      <trkpt lat="44.11409" lon="3.14065">
        <ele>508.39999389648</ele>
        <time>2020-10-03T10:44:04.000Z</time>
      </trkpt>
      <trkpt lat="44.11404" lon="3.14072">
        <ele>507.60000610352</ele>
        <time>2020-10-03T10:44:05.000Z</time>
      </trkpt>
      <trkpt lat="44.11397" lon="3.14076">
        <ele>507</ele>
        <time>2020-10-03T10:44:06.000Z</time>
      </trkpt>
      <trkpt lat="44.11388" lon="3.14077">
        <ele>506.39999389648</ele>
        <time>2020-10-03T10:44:07.000Z</time>
      </trkpt>
      <trkpt lat="44.1138" lon="3.14079">
        <ele>506</ele>
        <time>2020-10-03T10:44:08.000Z</time>
      </trkpt>
      <trkpt lat="44.11372" lon="3.1408">
        <ele>505.60000610352</ele>
        <time>2020-10-03T10:44:09.000Z</time>
      </trkpt>
      <trkpt lat="44.11365" lon="3.1408">
        <ele>505</ele>
        <time>2020-10-03T10:44:10.000Z</time>
      </trkpt>
      <trkpt lat="44.11358" lon="3.14076">
        <ele>503.79998779297</ele>
        <time>2020-10-03T10:44:11.000Z</time>
      </trkpt>
      <trkpt lat="44.11352" lon="3.14071">
        <ele>502.39999389648</ele>
        <time>2020-10-03T10:44:12.000Z</time>
      </trkpt>
      <trkpt lat="44.11348" lon="3.14066">
        <ele>501.20001220703</ele>
        <time>2020-10-03T10:44:13.000Z</time>
      </trkpt>
      <trkpt lat="44.11345" lon="3.14065">
        <ele>500</ele>
        <time>2020-10-03T10:44:14.000Z</time>
      </trkpt>
      <trkpt lat="44.11343" lon="3.14067">
        <ele>499</ele>
        <time>2020-10-03T10:44:15.000Z</time>
      </trkpt>
      <trkpt lat="44.11344" lon="3.14072">
        <ele>497.79998779297</ele>
        <time>2020-10-03T10:44:16.000Z</time>
      </trkpt>
      <trkpt lat="44.11344" lon="3.14078">
        <ele>496.39999389648</ele>
        <time>2020-10-03T10:44:17.000Z</time>
      </trkpt>
      <trkpt lat="44.11345" lon="3.14086">
        <ele>495</ele>
        <time>2020-10-03T10:44:18.000Z</time>
      </trkpt>
      <trkpt lat="44.11344" lon="3.14094">
        <ele>493.79998779297</ele>
        <time>2020-10-03T10:44:19.000Z</time>
      </trkpt>
      <trkpt lat="44.11345" lon="3.14102">
        <ele>492.60000610352</ele>
        <time>2020-10-03T10:44:20.000Z</time>
      </trkpt>
      <trkpt lat="44.11347" lon="3.1411">
        <ele>491.60000610352</ele>
        <time>2020-10-03T10:44:21.000Z</time>
      </trkpt>
      <trkpt lat="44.11352" lon="3.14116">
        <ele>490.39999389648</ele>
        <time>2020-10-03T10:44:22.000Z</time>
      </trkpt>
      <trkpt lat="44.11357" lon="3.14122">
        <ele>489.39999389648</ele>
        <time>2020-10-03T10:44:23.000Z</time>
      </trkpt>
      <trkpt lat="44.11362" lon="3.14126">
        <ele>488.79998779297</ele>
        <time>2020-10-03T10:44:24.000Z</time>
      </trkpt>
      <trkpt lat="44.11368" lon="3.14131">
        <ele>488</ele>
        <time>2020-10-03T10:44:25.000Z</time>
      </trkpt>
      <trkpt lat="44.11374" lon="3.14135">
        <ele>487</ele>
        <time>2020-10-03T10:44:26.000Z</time>
      </trkpt>
      <trkpt lat="44.1138" lon="3.14139">
        <ele>486.20001220703</ele>
        <time>2020-10-03T10:44:27.000Z</time>
      </trkpt>
      <trkpt lat="44.11386" lon="3.14142">
        <ele>485.39999389648</ele>
        <time>2020-10-03T10:44:28.000Z</time>
      </trkpt>
      <trkpt lat="44.11392" lon="3.14144">
        <ele>484.79998779297</ele>
        <time>2020-10-03T10:44:29.000Z</time>
      </trkpt>
      <trkpt lat="44.11398" lon="3.14147">
        <ele>484</ele>
        <time>2020-10-03T10:44:30.000Z</time>
      </trkpt>
      <trkpt lat="44.11402" lon="3.14149">
        <ele>483.39999389648</ele>
        <time>2020-10-03T10:44:31.000Z</time>
      </trkpt>
      <trkpt lat="44.11403" lon="3.14151">
        <ele>483</ele>
        <time>2020-10-03T10:44:32.000Z</time>
      </trkpt>
      <trkpt lat="44.11403" lon="3.14153">
        <ele>482.60000610352</ele>
        <time>2020-10-03T10:44:33.000Z</time>
      </trkpt>
      <trkpt lat="44.11403" lon="3.14153">
        <ele>481.79998779297</ele>
        <time>2020-10-03T10:44:34.000Z</time>
      </trkpt>
      <trkpt lat="44.11402" lon="3.14153">
        <ele>481.20001220703</ele>
        <time>2020-10-03T10:44:35.000Z</time>
      </trkpt>
      <trkpt lat="44.11402" lon="3.14152">
        <ele>480.60000610352</ele>
        <time>2020-10-03T10:44:36.000Z</time>
      </trkpt>
      <trkpt lat="44.11402" lon="3.14151">
        <ele>480.20001220703</ele>
        <time>2020-10-03T10:44:37.000Z</time>
      </trkpt>
      <trkpt lat="44.11401" lon="3.1415">
        <ele>479.20001220703</ele>
        <time>2020-10-03T10:44:38.000Z</time>
      </trkpt>
      <trkpt lat="44.11401" lon="3.14149">
        <ele>478</ele>
        <time>2020-10-03T10:44:39.000Z</time>
      </trkpt>
      <trkpt lat="44.11401" lon="3.14149">
        <ele>476.79998779297</ele>
        <time>2020-10-03T10:44:41.000Z</time>
      </trkpt>
      <trkpt lat="44.11401" lon="3.14148">
        <ele>476.39999389648</ele>
        <time>2020-10-03T10:44:43.000Z</time>
      </trkpt>
      <trkpt lat="44.11401" lon="3.14148">
        <ele>476.20001220703</ele>
        <time>2020-10-03T10:44:45.000Z</time>
      </trkpt>
      <trkpt lat="44.11401" lon="3.14147">
        <ele>476.20001220703</ele>
        <time>2020-10-03T10:44:47.000Z</time>
      </trkpt>
      <trkpt lat="44.114" lon="3.14147">
        <ele>476.20001220703</ele>
        <time>2020-10-03T10:44:48.000Z</time>
      </trkpt>
      <trkpt lat="44.11399" lon="3.14147">
        <ele>476.20001220703</ele>
        <time>2020-10-03T10:44:49.000Z</time>
      </trkpt>
      <trkpt lat="44.11394" lon="3.14147">
        <ele>476.20001220703</ele>
        <time>2020-10-03T10:44:51.000Z</time>
      </trkpt>
      <trkpt lat="44.11392" lon="3.14147">
        <ele>476.20001220703</ele>
        <time>2020-10-03T10:44:52.000Z</time>
      </trkpt>
      <trkpt lat="44.11389" lon="3.14146">
        <ele>476.20001220703</ele>
        <time>2020-10-03T10:44:53.000Z</time>
      </trkpt>
      <trkpt lat="44.11382" lon="3.14145">
        <ele>476.20001220703</ele>
        <time>2020-10-03T10:44:55.000Z</time>
      </trkpt>
      <trkpt lat="44.11375" lon="3.14143">
        <ele>476</ele>
        <time>2020-10-03T10:44:57.000Z</time>
      </trkpt>
      <trkpt lat="44.11366" lon="3.14138">
        <ele>475.60000610352</ele>
        <time>2020-10-03T10:44:59.000Z</time>
      </trkpt>
      <trkpt lat="44.1136" lon="3.14136">
        <ele>475.60000610352</ele>
        <time>2020-10-03T10:45:00.000Z</time>
      </trkpt>
      <trkpt lat="44.11355" lon="3.14135">
        <ele>475.39999389648</ele>
        <time>2020-10-03T10:45:01.000Z</time>
      </trkpt>
      <trkpt lat="44.11348" lon="3.14133">
        <ele>474.79998779297</ele>
        <time>2020-10-03T10:45:03.000Z</time>
      </trkpt>
      <trkpt lat="44.11346" lon="3.14133">
        <ele>474.60000610352</ele>
        <time>2020-10-03T10:45:04.000Z</time>
      </trkpt>
      <trkpt lat="44.11344" lon="3.14133">
        <ele>474.20001220703</ele>
        <time>2020-10-03T10:45:05.000Z</time>
      </trkpt>
      <trkpt lat="44.11344" lon="3.14132">
        <ele>474</ele>
        <time>2020-10-03T10:45:06.000Z</time>
      </trkpt>
      <trkpt lat="44.11343" lon="3.14132">
        <ele>472.79998779297</ele>
        <time>2020-10-03T10:45:07.000Z</time>
      </trkpt>
      <trkpt lat="44.11343" lon="3.14132">
        <ele>471</ele>
        <time>2020-10-03T10:45:09.000Z</time>
      </trkpt>
      <trkpt lat="44.11344" lon="3.14132">
        <ele>469.20001220703</ele>
        <time>2020-10-03T10:45:11.000Z</time>
      </trkpt>
      <trkpt lat="44.11345" lon="3.14132">
        <ele>467.60000610352</ele>
        <time>2020-10-03T10:45:13.000Z</time>
      </trkpt>
      <trkpt lat="44.11345" lon="3.14133">
        <ele>466.79998779297</ele>
        <time>2020-10-03T10:45:15.000Z</time>
      </trkpt>
      <trkpt lat="44.11346" lon="3.14133">
        <ele>466.60000610352</ele>
        <time>2020-10-03T10:45:16.000Z</time>
      </trkpt>
      <trkpt lat="44.11346" lon="3.14133">
        <ele>466.39999389648</ele>
        <time>2020-10-03T10:45:17.000Z</time>
      </trkpt>
      <trkpt lat="44.11347" lon="3.14133">
        <ele>466.39999389648</ele>
        <time>2020-10-03T10:45:19.000Z</time>
      </trkpt>
      <trkpt lat="44.11347" lon="3.14133">
        <ele>466.20001220703</ele>
        <time>2020-10-03T10:45:21.000Z</time>
      </trkpt>
      <trkpt lat="44.11348" lon="3.14133">
        <ele>466.20001220703</ele>
        <time>2020-10-03T10:45:23.000Z</time>
      </trkpt>
      <trkpt lat="44.11348" lon="3.14133">
        <ele>466.20001220703</ele>
        <time>2020-10-03T10:45:25.000Z</time>
      </trkpt>
      <trkpt lat="44.11348" lon="3.14133">
        <ele>466.20001220703</ele>
        <time>2020-10-03T10:45:27.000Z</time>
      </trkpt>
      <trkpt lat="44.11347" lon="3.14133">
        <ele>466.20001220703</ele>
        <time>2020-10-03T10:45:29.000Z</time>
      </trkpt>
      <trkpt lat="44.11344" lon="3.14132">
        <ele>466.20001220703</ele>
        <time>2020-10-03T10:45:31.000Z</time>
      </trkpt>
      <trkpt lat="44.11342" lon="3.1413">
        <ele>466.20001220703</ele>
        <time>2020-10-03T10:45:32.000Z</time>
      </trkpt>
      <trkpt lat="44.11338" lon="3.14127">
        <ele>466.20001220703</ele>
        <time>2020-10-03T10:45:33.000Z</time>
      </trkpt>
      <trkpt lat="44.1133" lon="3.14121">
        <ele>466.20001220703</ele>
        <time>2020-10-03T10:45:35.000Z</time>
      </trkpt>
      <trkpt lat="44.11326" lon="3.14117">
        <ele>466.20001220703</ele>
        <time>2020-10-03T10:45:36.000Z</time>
      </trkpt>
      <trkpt lat="44.11322" lon="3.14114">
        <ele>466</ele>
        <time>2020-10-03T10:45:37.000Z</time>
      </trkpt>
      <trkpt lat="44.11318" lon="3.14112">
        <ele>466</ele>
        <time>2020-10-03T10:45:38.000Z</time>
      </trkpt>
      <trkpt lat="44.11314" lon="3.14112">
        <ele>466</ele>
        <time>2020-10-03T10:45:39.000Z</time>
      </trkpt>
      <trkpt lat="44.11311" lon="3.14111">
        <ele>465.39999389648</ele>
        <time>2020-10-03T10:45:40.000Z</time>
      </trkpt>
      <trkpt lat="44.11307" lon="3.1411">
        <ele>464.60000610352</ele>
        <time>2020-10-03T10:45:41.000Z</time>
      </trkpt>
      <trkpt lat="44.11303" lon="3.14108">
        <ele>463.39999389648</ele>
        <time>2020-10-03T10:45:42.000Z</time>
      </trkpt>
      <trkpt lat="44.11299" lon="3.14103">
        <ele>462</ele>
        <time>2020-10-03T10:45:43.000Z</time>
      </trkpt>
      <trkpt lat="44.11295" lon="3.14098">
        <ele>460.60000610352</ele>
        <time>2020-10-03T10:45:44.000Z</time>
      </trkpt>
      <trkpt lat="44.11291" lon="3.14091">
        <ele>459.39999389648</ele>
        <time>2020-10-03T10:45:45.000Z</time>
      </trkpt>
      <trkpt lat="44.11288" lon="3.14085">
        <ele>458</ele>
        <time>2020-10-03T10:45:46.000Z</time>
      </trkpt>
      <trkpt lat="44.11286" lon="3.14082">
        <ele>456.60000610352</ele>
        <time>2020-10-03T10:45:47.000Z</time>
      </trkpt>
      <trkpt lat="44.11282" lon="3.14078">
        <ele>455.20001220703</ele>
        <time>2020-10-03T10:45:48.000Z</time>
      </trkpt>
      <trkpt lat="44.11278" lon="3.14073">
        <ele>453.79998779297</ele>
        <time>2020-10-03T10:45:49.000Z</time>
      </trkpt>
      <trkpt lat="44.11275" lon="3.14066">
        <ele>452.39999389648</ele>
        <time>2020-10-03T10:45:50.000Z</time>
      </trkpt>
      <trkpt lat="44.11271" lon="3.14059">
        <ele>450.79998779297</ele>
        <time>2020-10-03T10:45:51.000Z</time>
      </trkpt>
      <trkpt lat="44.11267" lon="3.14052">
        <ele>449</ele>
        <time>2020-10-03T10:45:52.000Z</time>
      </trkpt>
      <trkpt lat="44.11263" lon="3.14044">
        <ele>446.20001220703</ele>
        <time>2020-10-03T10:45:53.000Z</time>
      </trkpt>
      <trkpt lat="44.11259" lon="3.14037">
        <ele>444.79998779297</ele>
        <time>2020-10-03T10:45:54.000Z</time>
      </trkpt>
      <trkpt lat="44.11254" lon="3.14029">
        <ele>443.60000610352</ele>
        <time>2020-10-03T10:45:55.000Z</time>
      </trkpt>
      <trkpt lat="44.11251" lon="3.14025">
        <ele>442.39999389648</ele>
        <time>2020-10-03T10:45:56.000Z</time>
      </trkpt>
      <trkpt lat="44.11249" lon="3.14025">
        <ele>440.79998779297</ele>
        <time>2020-10-03T10:45:57.000Z</time>
      </trkpt>
      <trkpt lat="44.11248" lon="3.14028">
        <ele>439.39999389648</ele>
        <time>2020-10-03T10:45:58.000Z</time>
      </trkpt>
      <trkpt lat="44.1125" lon="3.14032">
        <ele>438.60000610352</ele>
        <time>2020-10-03T10:45:59.000Z</time>
      </trkpt>
      <trkpt lat="44.11252" lon="3.14036">
        <ele>437.39999389648</ele>
        <time>2020-10-03T10:46:00.000Z</time>
      </trkpt>
      <trkpt lat="44.11252" lon="3.14038">
        <ele>436.20001220703</ele>
        <time>2020-10-03T10:46:01.000Z</time>
      </trkpt>
      <trkpt lat="44.11253" lon="3.14039">
        <ele>434.79998779297</ele>
        <time>2020-10-03T10:46:02.000Z</time>
      </trkpt>
      <trkpt lat="44.11253" lon="3.14039">
        <ele>433.39999389648</ele>
        <time>2020-10-03T10:46:03.000Z</time>
      </trkpt>
      <trkpt lat="44.11254" lon="3.1404">
        <ele>431.79998779297</ele>
        <time>2020-10-03T10:46:04.000Z</time>
      </trkpt>
      <trkpt lat="44.11254" lon="3.1404">
        <ele>430.79998779297</ele>
        <time>2020-10-03T10:46:05.000Z</time>
      </trkpt>
      <trkpt lat="44.11254" lon="3.14041">
        <ele>430.20001220703</ele>
        <time>2020-10-03T10:46:06.000Z</time>
      </trkpt>
      <trkpt lat="44.11255" lon="3.14042">
        <ele>429.60000610352</ele>
        <time>2020-10-03T10:46:07.000Z</time>
      </trkpt>
      <trkpt lat="44.11255" lon="3.14043">
        <ele>429.20001220703</ele>
        <time>2020-10-03T10:46:08.000Z</time>
      </trkpt>
      <trkpt lat="44.11255" lon="3.14044">
        <ele>428.60000610352</ele>
        <time>2020-10-03T10:46:09.000Z</time>
      </trkpt>
      <trkpt lat="44.11256" lon="3.14044">
        <ele>428.20001220703</ele>
        <time>2020-10-03T10:46:10.000Z</time>
      </trkpt>
      <trkpt lat="44.11256" lon="3.14045">
        <ele>427.79998779297</ele>
        <time>2020-10-03T10:46:11.000Z</time>
      </trkpt>
      <trkpt lat="44.11256" lon="3.14046">
        <ele>427.60000610352</ele>
        <time>2020-10-03T10:46:13.000Z</time>
      </trkpt>
      <trkpt lat="44.11257" lon="3.14048">
        <ele>427.60000610352</ele>
        <time>2020-10-03T10:46:14.000Z</time>
      </trkpt>
      <trkpt lat="44.11257" lon="3.1405">
        <ele>427.60000610352</ele>
        <time>2020-10-03T10:46:15.000Z</time>
      </trkpt>
      <trkpt lat="44.11258" lon="3.14059">
        <ele>427.20001220703</ele>
        <time>2020-10-03T10:46:17.000Z</time>
      </trkpt>
      <trkpt lat="44.11258" lon="3.14063">
        <ele>427.20001220703</ele>
        <time>2020-10-03T10:46:18.000Z</time>
      </trkpt>
      <trkpt lat="44.11255" lon="3.14068">
        <ele>427.20001220703</ele>
        <time>2020-10-03T10:46:19.000Z</time>
      </trkpt>
      <trkpt lat="44.11253" lon="3.14071">
        <ele>427.20001220703</ele>
        <time>2020-10-03T10:46:20.000Z</time>
      </trkpt>
      <trkpt lat="44.1125" lon="3.14072">
        <ele>427</ele>
        <time>2020-10-03T10:46:21.000Z</time>
      </trkpt>
      <trkpt lat="44.11242" lon="3.14069">
        <ele>426.39999389648</ele>
        <time>2020-10-03T10:46:23.000Z</time>
      </trkpt>
      <trkpt lat="44.11239" lon="3.14065">
        <ele>426.20001220703</ele>
        <time>2020-10-03T10:46:24.000Z</time>
      </trkpt>
      <trkpt lat="44.11235" lon="3.14061">
        <ele>426</ele>
        <time>2020-10-03T10:46:25.000Z</time>
      </trkpt>
      <trkpt lat="44.11231" lon="3.14055">
        <ele>425.20001220703</ele>
        <time>2020-10-03T10:46:26.000Z</time>
      </trkpt>
      <trkpt lat="44.11227" lon="3.14048">
        <ele>424.39999389648</ele>
        <time>2020-10-03T10:46:27.000Z</time>
      </trkpt>
      <trkpt lat="44.11223" lon="3.1404">
        <ele>424</ele>
        <time>2020-10-03T10:46:28.000Z</time>
      </trkpt>
      <trkpt lat="44.11219" lon="3.14032">
        <ele>423.60000610352</ele>
        <time>2020-10-03T10:46:29.000Z</time>
      </trkpt>
      <trkpt lat="44.11209" lon="3.14019">
        <ele>423</ele>
        <time>2020-10-03T10:46:31.000Z</time>
      </trkpt>
      <trkpt lat="44.11205" lon="3.14013">
        <ele>422.60000610352</ele>
        <time>2020-10-03T10:46:32.000Z</time>
      </trkpt>
      <trkpt lat="44.11202" lon="3.14007">
        <ele>422</ele>
        <time>2020-10-03T10:46:33.000Z</time>
      </trkpt>
      <trkpt lat="44.11199" lon="3.14001">
        <ele>421.20001220703</ele>
        <time>2020-10-03T10:46:34.000Z</time>
      </trkpt>
      <trkpt lat="44.11198" lon="3.13995">
        <ele>420.79998779297</ele>
        <time>2020-10-03T10:46:35.000Z</time>
      </trkpt>
      <trkpt lat="44.11197" lon="3.13989">
        <ele>420</ele>
        <time>2020-10-03T10:46:36.000Z</time>
      </trkpt>
      <trkpt lat="44.11196" lon="3.13983">
        <ele>419</ele>
        <time>2020-10-03T10:46:37.000Z</time>
      </trkpt>
      <trkpt lat="44.11194" lon="3.13978">
        <ele>418.20001220703</ele>
        <time>2020-10-03T10:46:38.000Z</time>
      </trkpt>
      <trkpt lat="44.11191" lon="3.13973">
        <ele>417</ele>
        <time>2020-10-03T10:46:39.000Z</time>
      </trkpt>
      <trkpt lat="44.11186" lon="3.13967">
        <ele>415.79998779297</ele>
        <time>2020-10-03T10:46:40.000Z</time>
      </trkpt>
      <trkpt lat="44.11181" lon="3.13962">
        <ele>414.79998779297</ele>
        <time>2020-10-03T10:46:41.000Z</time>
      </trkpt>
      <trkpt lat="44.11175" lon="3.13956">
        <ele>413.60000610352</ele>
        <time>2020-10-03T10:46:42.000Z</time>
      </trkpt>
      <trkpt lat="44.11169" lon="3.13951">
        <ele>412.79998779297</ele>
        <time>2020-10-03T10:46:43.000Z</time>
      </trkpt>
      <trkpt lat="44.11163" lon="3.13945">
        <ele>411.79998779297</ele>
        <time>2020-10-03T10:46:44.000Z</time>
      </trkpt>
      <trkpt lat="44.11157" lon="3.13939">
        <ele>410.79998779297</ele>
        <time>2020-10-03T10:46:45.000Z</time>
      </trkpt>
      <trkpt lat="44.11144" lon="3.13925">
        <ele>409.20001220703</ele>
        <time>2020-10-03T10:46:47.000Z</time>
      </trkpt>
      <trkpt lat="44.11137" lon="3.13918">
        <ele>408.60000610352</ele>
        <time>2020-10-03T10:46:48.000Z</time>
      </trkpt>
      <trkpt lat="44.11131" lon="3.13912">
        <ele>408.20001220703</ele>
        <time>2020-10-03T10:46:49.000Z</time>
      </trkpt>
      <trkpt lat="44.11124" lon="3.13905">
        <ele>407.39999389648</ele>
        <time>2020-10-03T10:46:50.000Z</time>
      </trkpt>
      <trkpt lat="44.11117" lon="3.13899">
        <ele>405.60000610352</ele>
        <time>2020-10-03T10:46:51.000Z</time>
      </trkpt>
      <trkpt lat="44.11109" lon="3.13893">
        <ele>404.39999389648</ele>
        <time>2020-10-03T10:46:52.000Z</time>
      </trkpt>
      <trkpt lat="44.11102" lon="3.13888">
        <ele>403.79998779297</ele>
        <time>2020-10-03T10:46:53.000Z</time>
      </trkpt>
      <trkpt lat="44.11093" lon="3.13882">
        <ele>403</ele>
        <time>2020-10-03T10:46:54.000Z</time>
      </trkpt>
      <trkpt lat="44.11085" lon="3.13878">
        <ele>402.20001220703</ele>
        <time>2020-10-03T10:46:55.000Z</time>
      </trkpt>
      <trkpt lat="44.11078" lon="3.13874">
        <ele>401.60000610352</ele>
        <time>2020-10-03T10:46:56.000Z</time>
      </trkpt>
      <trkpt lat="44.11069" lon="3.13869">
        <ele>400.79998779297</ele>
        <time>2020-10-03T10:46:57.000Z</time>
      </trkpt>
      <trkpt lat="44.11059" lon="3.13864">
        <ele>400</ele>
        <time>2020-10-03T10:46:58.000Z</time>
      </trkpt>
      <trkpt lat="44.11051" lon="3.13858">
        <ele>399.20001220703</ele>
        <time>2020-10-03T10:46:59.000Z</time>
      </trkpt>
      <trkpt lat="44.11043" lon="3.13852">
        <ele>398.20001220703</ele>
        <time>2020-10-03T10:47:00.000Z</time>
      </trkpt>
      <trkpt lat="44.11035" lon="3.13846">
        <ele>397.39999389648</ele>
        <time>2020-10-03T10:47:01.000Z</time>
      </trkpt>
      <trkpt lat="44.11029" lon="3.13841">
        <ele>396.20001220703</ele>
        <time>2020-10-03T10:47:02.000Z</time>
      </trkpt>
      <trkpt lat="44.11022" lon="3.13837">
        <ele>395.39999389648</ele>
        <time>2020-10-03T10:47:03.000Z</time>
      </trkpt>
      <trkpt lat="44.11016" lon="3.13836">
        <ele>394.60000610352</ele>
        <time>2020-10-03T10:47:04.000Z</time>
      </trkpt>
      <trkpt lat="44.11009" lon="3.13838">
        <ele>393.60000610352</ele>
        <time>2020-10-03T10:47:05.000Z</time>
      </trkpt>
      <trkpt lat="44.11002" lon="3.13842">
        <ele>392.60000610352</ele>
        <time>2020-10-03T10:47:06.000Z</time>
      </trkpt>
      <trkpt lat="44.10995" lon="3.13845">
        <ele>391.60000610352</ele>
        <time>2020-10-03T10:47:07.000Z</time>
      </trkpt>
      <trkpt lat="44.10988" lon="3.13848">
        <ele>390.79998779297</ele>
        <time>2020-10-03T10:47:08.000Z</time>
      </trkpt>
      <trkpt lat="44.10981" lon="3.13851">
        <ele>390</ele>
        <time>2020-10-03T10:47:09.000Z</time>
      </trkpt>
      <trkpt lat="44.10975" lon="3.13854">
        <ele>389</ele>
        <time>2020-10-03T10:47:10.000Z</time>
      </trkpt>
      <trkpt lat="44.10967" lon="3.13857">
        <ele>388.20001220703</ele>
        <time>2020-10-03T10:47:11.000Z</time>
      </trkpt>
      <trkpt lat="44.10959" lon="3.13858">
        <ele>387.39999389648</ele>
        <time>2020-10-03T10:47:12.000Z</time>
      </trkpt>
      <trkpt lat="44.10952" lon="3.13858">
        <ele>386.79998779297</ele>
        <time>2020-10-03T10:47:13.000Z</time>
      </trkpt>
      <trkpt lat="44.10946" lon="3.13857">
        <ele>386</ele>
        <time>2020-10-03T10:47:14.000Z</time>
      </trkpt>
      <trkpt lat="44.10941" lon="3.13856">
        <ele>385.39999389648</ele>
        <time>2020-10-03T10:47:15.000Z</time>
      </trkpt>
      <trkpt lat="44.10936" lon="3.13854">
        <ele>384.79998779297</ele>
        <time>2020-10-03T10:47:16.000Z</time>
      </trkpt>
      <trkpt lat="44.10931" lon="3.13853">
        <ele>384</ele>
        <time>2020-10-03T10:47:17.000Z</time>
      </trkpt>
      <trkpt lat="44.10926" lon="3.13852">
        <ele>383.39999389648</ele>
        <time>2020-10-03T10:47:18.000Z</time>
      </trkpt>
      <trkpt lat="44.10921" lon="3.1385">
        <ele>382.39999389648</ele>
        <time>2020-10-03T10:47:19.000Z</time>
      </trkpt>
      <trkpt lat="44.10917" lon="3.13848">
        <ele>381</ele>
        <time>2020-10-03T10:47:20.000Z</time>
      </trkpt>
      <trkpt lat="44.10913" lon="3.13846">
        <ele>380.20001220703</ele>
        <time>2020-10-03T10:47:21.000Z</time>
      </trkpt>
      <trkpt lat="44.10909" lon="3.13844">
        <ele>379.39999389648</ele>
        <time>2020-10-03T10:47:22.000Z</time>
      </trkpt>
      <trkpt lat="44.10905" lon="3.13843">
        <ele>378.79998779297</ele>
        <time>2020-10-03T10:47:23.000Z</time>
      </trkpt>
      <trkpt lat="44.10902" lon="3.13843">
        <ele>378</ele>
        <time>2020-10-03T10:47:24.000Z</time>
      </trkpt>
      <trkpt lat="44.109" lon="3.13842">
        <ele>377.39999389648</ele>
        <time>2020-10-03T10:47:25.000Z</time>
      </trkpt>
      <trkpt lat="44.10898" lon="3.13842">
        <ele>376.79998779297</ele>
        <time>2020-10-03T10:47:26.000Z</time>
      </trkpt>
      <trkpt lat="44.10897" lon="3.13842">
        <ele>376.20001220703</ele>
        <time>2020-10-03T10:47:27.000Z</time>
      </trkpt>
      <trkpt lat="44.10896" lon="3.13841">
        <ele>375.60000610352</ele>
        <time>2020-10-03T10:47:28.000Z</time>
      </trkpt>
      <trkpt lat="44.10896" lon="3.13842">
        <ele>375</ele>
        <time>2020-10-03T10:47:29.000Z</time>
      </trkpt>
      <trkpt lat="44.10896" lon="3.13841">
        <ele>374.60000610352</ele>
        <time>2020-10-03T10:47:30.000Z</time>
      </trkpt>
      <trkpt lat="44.10897" lon="3.13841">
        <ele>374.20001220703</ele>
        <time>2020-10-03T10:47:31.000Z</time>
      </trkpt>
      <trkpt lat="44.10897" lon="3.13841">
        <ele>373.39999389648</ele>
        <time>2020-10-03T10:47:33.000Z</time>
      </trkpt>
      <trkpt lat="44.10897" lon="3.13841">
        <ele>372.79998779297</ele>
        <time>2020-10-03T10:47:35.000Z</time>
      </trkpt>
      <trkpt lat="44.10896" lon="3.13841">
        <ele>372.20001220703</ele>
        <time>2020-10-03T10:47:37.000Z</time>
      </trkpt>
      <trkpt lat="44.10896" lon="3.13841">
        <ele>372</ele>
        <time>2020-10-03T10:47:39.000Z</time>
      </trkpt>
      <trkpt lat="44.10897" lon="3.13841">
        <ele>372</ele>
        <time>2020-10-03T10:47:41.000Z</time>
      </trkpt>
      <trkpt lat="44.10897" lon="3.13841">
        <ele>372</ele>
        <time>2020-10-03T10:47:43.000Z</time>
      </trkpt>
      <trkpt lat="44.10897" lon="3.13841">
        <ele>372</ele>
        <time>2020-10-03T10:47:45.000Z</time>
      </trkpt>
      <trkpt lat="44.10897" lon="3.13841">
        <ele>372</ele>
        <time>2020-10-03T10:47:47.000Z</time>
      </trkpt>
      <trkpt lat="44.10897" lon="3.13841">
        <ele>372</ele>
        <time>2020-10-03T10:47:49.000Z</time>
      </trkpt>
      <trkpt lat="44.10897" lon="3.13841">
        <ele>372</ele>
        <time>2020-10-03T10:47:51.000Z</time>
      </trkpt>
      <trkpt lat="44.10897" lon="3.13841">
        <ele>372</ele>
        <time>2020-10-03T10:47:53.000Z</time>
      </trkpt>
      <trkpt lat="44.10897" lon="3.13841">
        <ele>372</ele>
        <time>2020-10-03T10:47:55.000Z</time>
      </trkpt>
      <trkpt lat="44.10897" lon="3.13841">
        <ele>372</ele>
        <time>2020-10-03T10:47:57.000Z</time>
      </trkpt>
      <trkpt lat="44.10897" lon="3.13841">
        <ele>372</ele>
        <time>2020-10-03T10:47:59.000Z</time>
      </trkpt>
      <trkpt lat="44.10897" lon="3.13841">
        <ele>372</ele>
        <time>2020-10-03T10:48:01.000Z</time>
      </trkpt>
      <trkpt lat="44.10897" lon="3.13841">
        <ele>372</ele>
        <time>2020-10-03T10:48:03.000Z</time>
      </trkpt>
      <trkpt lat="44.10897" lon="3.13841">
        <ele>371.79998779297</ele>
        <time>2020-10-03T10:48:05.000Z</time>
      </trkpt>
      <trkpt lat="44.10897" lon="3.13841">
        <ele>371.79998779297</ele>
        <time>2020-10-03T10:48:07.000Z</time>
      </trkpt>
      <trkpt lat="44.10897" lon="3.13841">
        <ele>371.79998779297</ele>
        <time>2020-10-03T10:48:09.000Z</time>
      </trkpt>
      <trkpt lat="44.10897" lon="3.13841">
        <ele>371.79998779297</ele>
        <time>2020-10-03T10:48:11.000Z</time>
      </trkpt>
      <trkpt lat="44.10897" lon="3.13841">
        <ele>371.79998779297</ele>
        <time>2020-10-03T10:48:13.000Z</time>
      </trkpt>
      <trkpt lat="44.10897" lon="3.13841">
        <ele>371.79998779297</ele>
        <time>2020-10-03T10:48:15.000Z</time>
      </trkpt>
      <trkpt lat="44.10897" lon="3.13841">
        <ele>372</ele>
        <time>2020-10-03T10:48:17.000Z</time>
      </trkpt>
      <trkpt lat="44.10897" lon="3.13841">
        <ele>372</ele>
        <time>2020-10-03T10:48:19.000Z</time>
      </trkpt>
      <trkpt lat="44.10897" lon="3.13841">
        <ele>372.20001220703</ele>
        <time>2020-10-03T10:48:21.000Z</time>
      </trkpt>
      <trkpt lat="44.10897" lon="3.13841">
        <ele>372.20001220703</ele>
        <time>2020-10-03T10:48:23.000Z</time>
      </trkpt>
      <trkpt lat="44.10897" lon="3.13841">
        <ele>372.39999389648</ele>
        <time>2020-10-03T10:48:25.000Z</time>
      </trkpt>
      <trkpt lat="44.10897" lon="3.1384">
        <ele>372.60000610352</ele>
        <time>2020-10-03T10:48:27.000Z</time>
      </trkpt>
      <trkpt lat="44.10897" lon="3.13841">
        <ele>372.79998779297</ele>
        <time>2020-10-03T10:48:29.000Z</time>
      </trkpt>
      <trkpt lat="44.10897" lon="3.13841">
        <ele>372.79998779297</ele>
        <time>2020-10-03T10:48:31.000Z</time>
      </trkpt>
      <trkpt lat="44.10897" lon="3.13842">
        <ele>372.79998779297</ele>
        <time>2020-10-03T10:48:33.000Z</time>
      </trkpt>
      <trkpt lat="44.10897" lon="3.13842">
        <ele>373</ele>
        <time>2020-10-03T10:48:35.000Z</time>
      </trkpt>
      <trkpt lat="44.10897" lon="3.13842">
        <ele>373</ele>
        <time>2020-10-03T10:48:37.000Z</time>
      </trkpt>
      <trkpt lat="44.10897" lon="3.13842">
        <ele>373</ele>
        <time>2020-10-03T10:48:38.000Z</time>
      </trkpt>
      <trkpt lat="44.10897" lon="3.13842">
        <ele>373</ele>
        <time>2020-10-03T10:48:39.000Z</time>
      </trkpt>
      <trkpt lat="44.10897" lon="3.13842">
        <ele>372.60000610352</ele>
        <time>2020-10-03T10:48:41.000Z</time>
      </trkpt>
    </trkseg>
  </trk>
</gpx>